Eltham High School

Historical Weather Data

                  Temp     Hi    Low   Out         Wind        Wind    Hi    Hi   Wind   Heat          THSW                Rain  Solar   Solar Hi Solar         UV    Hi     Heat    Cool    In     In          Wind  Wind    ISS   Arc.
  Date    Time     Out   Temp   Temp   Hum    Dew Speed   Dir   Run Speed   Dir  Chill  Index    THW  Index   Bar    Rain  Rate   Rad.  Energy    Rad.    UV   Dose   UV     D-D     D-D    Temp   Hum     ET   Samp   Tx   Recept  Int.
------------------------------------------------------------------------------------------------------------------------------------------------------------------------------------------------------------------------------------------
20/06/19 12:30a    5.6    5.9    5.6    94    4.7   0.0   ---  0.00   0.0   ---    5.6    5.7    5.7    3.8  1040.2  0.00   0.0     0     0.00      0     0.0  0.00   0.0   0.265   0.000   25.1    33    0.00   677    1     99.0   30 
20/06/19  1:00a    4.7    5.6    4.7    94    3.8   0.0   ---  0.00   0.0   ---    4.7    4.7    4.7    2.9  1040.3  0.00   0.0     0     0.00      0     0.0  0.00   0.0   0.285   0.000   25.0    33    0.00   656    1     95.9   30 
20/06/19  1:30a    4.4    4.7    4.3    95    3.7   0.0   ---  0.00   0.0   ---    4.4    4.4    4.4    2.6  1040.0  0.00   0.0     0     0.00      0     0.0  0.00   0.0   0.291   0.000   24.8    33    0.00   700    1    100.0   30 
20/06/19  2:00a    4.2    4.3    4.2    95    3.5   0.0   ---  0.00   0.0   ---    4.2    4.3    4.3    2.4  1039.8  0.00   0.0     0     0.00      0     0.0  0.00   0.0   0.294   0.000   24.6    33    0.00   677    1     99.0   30 
20/06/19  2:30a    3.9    4.2    3.9    95    3.2   0.0   ---  0.00   0.0   ---    3.9    3.9    3.9    2.1  1039.8  0.00   0.0     0     0.00      0     0.0  0.00   0.0   0.300   0.000   24.5    33    0.00   700    1    100.0   30 
20/06/19  3:00a    4.1    4.1    3.9    96    3.5   0.0   ---  0.00   0.0   ---    4.1    4.1    4.1    2.3  1039.8  0.00   0.0     0     0.00      0     0.0  0.00   0.0   0.297   0.000   24.4    33    0.00   696    1    100.0   30 
20/06/19  3:30a    4.2    4.2    4.0    96    3.6   0.0   ---  0.00   0.0   ---    4.2    4.2    4.2    2.4  1039.7  0.00   0.0     0     0.00      0     0.0  0.00   0.0   0.295   0.000   24.3    33    0.00   701    1    100.0   30 
20/06/19  4:00a    4.1    4.2    4.1    95    3.3   0.0   ---  0.00   0.0   ---    4.1    4.1    4.1    2.2  1039.6  0.00   0.0     0     0.00      0     0.0  0.00   0.0   0.297   0.000   24.2    33    0.00   702    1    100.0   30 
20/06/19  4:30a    4.3    4.3    4.1    96    3.7   0.0   ---  0.00   0.0   ---    4.3    4.3    4.3    2.5  1039.5  0.00   0.0     0     0.00      0     0.0  0.00   0.0   0.293   0.000   24.1    33    0.00   701    1    100.0   30 
20/06/19  5:00a    4.6    4.6    4.3    96    4.0   0.0   ---  0.00   0.0   ---    4.6    4.6    4.6    2.8  1039.5  0.00   0.0     0     0.00      0     0.0  0.00   0.0   0.287   0.000   24.0    33    0.00   701    1    100.0   30 
20/06/19  5:30a    4.8    4.8    4.6    96    4.2   0.0   ---  0.00   0.0   ---    4.8    4.8    4.8    3.0  1039.5  0.00   0.0     0     0.00      0     0.0  0.00   0.0   0.282   0.000   23.9    33    0.00   702    1    100.0   30 
20/06/19  6:00a    5.0    5.0    4.8    96    4.4   0.0   ---  0.00   0.0   ---    5.0    5.1    5.1    3.2  1039.7  0.00   0.0     0     0.00      0     0.0  0.00   0.0   0.278   0.000   23.9    33    0.00   701    1    100.0   30 
20/06/19  6:30a    5.1    5.1    5.0    96    4.5   0.0   ---  0.00   0.0   ---    5.1    5.2    5.2    3.3  1039.8  0.00   0.0     0     0.00      0     0.0  0.00   0.0   0.275   0.000   23.9    33    0.00   699    1    100.0   30 
20/06/19  7:00a    4.9    5.2    4.9    96    4.4   0.0   ---  0.00   0.0   ---    4.9    5.0    5.0    3.2  1039.9  0.25   0.0     0     0.00      0     0.0  0.00   0.0   0.279   0.000   23.8    33    0.00   699    1    100.0   30 
20/06/19  7:30a    4.8    4.9    4.8    96    4.2   0.0   ---  0.00   0.0   ---    4.8    4.9    4.9    3.1  1040.2  0.00   0.0     0     0.00      0     0.0  0.00   0.0   0.281   0.000   23.8    33    0.00   699    1    100.0   30 
20/06/19  8:00a    5.3    5.3    4.8    97    4.8   0.0   ---  0.00   0.0   ---    5.3    5.3    5.3    3.6  1040.4  0.25   0.0     6     0.26     12     0.0  0.00   0.0   0.272   0.000   24.1    33    0.00   702    1    100.0   30 
20/06/19  8:30a    5.7    5.7    5.3    97    5.2   0.0   ---  0.00   0.0   ---    5.7    5.7    5.7    4.2  1040.4  0.76   2.8    17     0.73     28     0.0  0.00   0.0   0.264   0.000   24.1    33    0.00   701    1    100.0   30 
20/06/19  9:00a    6.1    6.2    5.6    97    5.7   0.0   ---  0.00   0.0   ---    6.1    6.2    6.2    5.9  1040.5  0.25   2.3    37     1.59     42     0.0  0.00   0.0   0.255   0.000   24.1    35    0.00   701    1    100.0   30 
20/06/19  9:30a    6.7    6.7    6.1    97    6.2   0.0   ---  0.00   0.0   ---    6.7    6.8    6.8    6.8  1040.5  0.25   0.0    50     2.15     54     0.0  0.00   0.0   0.243   0.000   24.5    35    0.00   701    1    100.0   30 
20/06/19 10:00a    7.2    7.2    6.7    97    6.8   0.0   ---  0.00   0.0   ---    7.2    7.4    7.4    7.8  1040.6  0.25   0.0    72     3.10    121     0.0  0.00   0.0   0.231   0.000   24.9    35    0.03   701    1    100.0   30 
20/06/19 10:30a    7.5    7.6    7.3    97    7.1   0.0   ---  0.00   0.0   ---    7.5    7.7    7.7    8.6  1040.5  0.00   0.0   104     4.47    148     0.0  0.00   0.0   0.226   0.000   25.5    36    0.00   699    1    100.0   30 
20/06/19 11:00a    7.8    7.8    7.5    97    7.4   0.0   ---  0.00   0.0   ---    7.8    8.0    8.0    8.8  1040.4  0.00   0.0   103     4.43    121     0.0  0.00   0.0   0.219   0.000   26.0    36    0.05   701    1    100.0   30 
20/06/19 11:30a    7.9    7.9    7.8    97    7.5   0.0   WSW  0.00   1.6   WSW    7.9    8.2    8.2    8.9  1040.0  0.00   0.0   100     4.30    107     0.0  0.00   0.0   0.216   0.000   26.5    36    0.00   701    1    100.0   30 
20/06/19 12:00p    8.1    8.2    7.9    97    7.6   0.0   ---  0.00   0.0   ---    8.1    8.3    8.3    9.3  1039.6  0.25   0.0   119     5.12    135     0.0  0.00   0.0   0.214   0.000   27.0    36    0.05   656    1     95.9   30 
20/06/19 12:30p    8.1    8.2    8.0    97    7.7   0.0   ---  0.00   0.0   ---    8.1    8.3    8.3    9.5  1039.4  0.00   0.0   128     5.50    142     0.0  0.00   0.0   0.213   0.000   27.2    36    0.00   702    1    100.0   30 
20/06/19  1:00p    8.7    8.7    8.1    97    8.3   0.0   WSW  0.00  11.3   WSW    8.7    9.0    9.0   11.6  1038.9  0.00   0.0   207     8.90    339     0.3  0.06   0.6   0.200   0.000   27.6    36    0.08   703    1    100.0   30 
20/06/19  1:30p    8.6    8.8    8.6    96    8.0   0.0   WSW  0.00   9.7    SW    8.6    8.8    8.8   11.2  1038.5  0.00   0.0   192     8.26    207     0.0  0.00   0.0   0.204   0.000   27.9    36    0.00   698    1    100.0   30 
20/06/19  2:00p    9.1    9.1    8.5    95    8.4   0.0   WSW  0.00   1.6   WSW    9.1    9.3    9.3   11.8  1038.4  0.00   0.0   189     8.13    204     0.0  0.00   0.0   0.192   0.000   28.7    36    0.08   701    1    100.0   30 
20/06/19  2:30p    9.4    9.4    9.1    90    7.9   0.0   ESE  0.00   3.2   ESE    9.4    9.6    9.6   10.9  1038.4  0.00   0.0   116     4.99    181     0.0  0.00   0.0   0.185   0.000   28.9    35    0.00   701    1    100.0   30 
20/06/19  3:00p    9.3    9.4    9.3    88    7.4   0.0     S  0.00  19.3   SSW    9.3    9.4    9.4   10.2  1038.3  0.00   0.0    84     3.61    111     0.0  0.00   0.0   0.188   0.000   28.8    35    0.00   698    1    100.0   30 
20/06/19  3:30p    9.5    9.6    9.3    85    7.1   0.0   SSW  0.00   6.4   SSW    9.5    9.6    9.6   10.7  1038.3  0.00   0.0    98     4.21    120     0.0  0.00   0.0   0.184   0.000   28.4    34    0.05   701    1    100.0   30 
20/06/19  4:00p    9.1    9.5    9.1    89    7.3   0.0   SSW  0.00  16.1   SSW    9.1    9.2    9.2    8.8  1038.4  0.76   8.4    30     1.29     77     0.0  0.00   0.0   0.193   0.000   28.1    34    0.03   699    1    100.0   30 
20/06/19  4:30p    8.8    9.1    8.8    92    7.5   0.0   ---  0.00   0.0   ---    8.8    8.9    8.9    7.9  1038.6  0.00   0.0    37     1.59     54     0.0  0.00   0.0   0.199   0.000   27.2    34    0.00   701    1    100.0   30 
20/06/19  5:00p    8.6    8.8    8.6    92    7.3   0.0   ---  0.00   0.0   ---    8.6    8.7    8.7    7.4  1038.8  0.00   0.0    15     0.65     35     0.0  0.00   0.0   0.204   0.000   26.4    34    0.03   700    1    100.0   30 
20/06/19  5:30p    8.2    8.6    8.2    93    7.2   0.0   ---  0.00   0.0   ---    8.2    8.4    8.4    6.8  1039.2  0.00   0.0     0     0.00      0     0.0  0.00   0.0   0.211   0.000   26.0    35    0.00   701    1    100.0   30 
20/06/19  6:00p    7.9    8.2    7.9    93    6.9   0.0   ---  0.00   0.0   ---    7.9    8.1    8.1    6.5  1039.4  0.00   0.0     0     0.00      0     0.0  0.00   0.0   0.216   0.000   26.4    35    0.00   703    1    100.0   30 
20/06/19  6:30p    7.4    7.9    7.4    94    6.5   0.0   ---  0.00   0.0   ---    7.4    7.6    7.6    6.0  1039.6  0.00   0.0     0     0.00      0     0.0  0.00   0.0   0.227   0.000   26.5    34    0.00   701    1    100.0   30 
20/06/19  7:00p    7.3    7.4    7.2    94    6.4   0.0   ---  0.00   0.0   ---    7.3    7.4    7.4    5.8  1039.9  0.00   0.0     0     0.00      0     0.0  0.00   0.0   0.230   0.000   25.9    34    0.00   674    1     98.5   30 
20/06/19  7:30p    6.9    7.3    6.9    94    6.0   0.0   ---  0.00   0.0   ---    6.9    7.0    7.0    5.4  1040.2  0.00   0.0     0     0.00      0     0.0  0.00   0.0   0.238   0.000   25.0    35    0.00   700    1    100.0   30 
20/06/19  8:00p    6.2    6.9    6.2    94    5.3   0.0   ---  0.00   0.0   ---    6.2    6.3    6.3    4.7  1040.4  0.25   0.0     0     0.00      0     0.0  0.00   0.0   0.252   0.000   24.4    35    0.00   702    1    100.0   30 
20/06/19  8:30p    6.6    6.6    6.2    95    5.9   0.0   ---  0.00   0.0   ---    6.6    6.7    6.7    5.1  1040.5  0.00   0.0     0     0.00      0     0.0  0.00   0.0   0.244   0.000   24.6    35    0.00   700    1    100.0   30 
20/06/19  9:00p    6.3    6.6    6.3    95    5.6   0.0   ---  0.00   0.0   ---    6.3    6.4    6.4    4.8  1040.5  0.00   0.0     0     0.00      0     0.0  0.00   0.0   0.250   0.000   25.0    35    0.00   701    1    100.0   30 
20/06/19  9:30p    6.3    6.3    6.1    95    5.5   0.0   ---  0.00   0.0   ---    6.3    6.3    6.3    4.7  1040.5  0.00   0.0     0     0.00      0     0.0  0.00   0.0   0.251   0.000   25.1    35    0.00   702    1    100.0   30 
20/06/19 10:00p    6.4    6.4    6.2    95    5.6   0.0   ---  0.00   0.0   ---    6.4    6.4    6.4    4.8  1040.6  0.00   0.0     0     0.00      0     0.0  0.00   0.0   0.249   0.000   25.1    35    0.00   700    1    100.0   30 
20/06/19 10:30p    6.1    6.4    6.1    95    5.3   0.0   ---  0.00   0.0   ---    6.1    6.1    6.1    4.5  1040.6  0.00   0.0     0     0.00      0     0.0  0.00   0.0   0.256   0.000   25.0    34    0.00   703    1    100.0   30 
20/06/19 11:00p    6.1    6.1    5.9    96    5.5   0.0   ---  0.00   0.0   ---    6.1    6.1    6.1    4.5  1040.6  0.00   0.0     0     0.00      0     0.0  0.00   0.0   0.256   0.000   24.9    34    0.00   700    1    100.0   30 
20/06/19 11:30p    5.8    6.2    5.8    95    5.0   0.0   ---  0.00   0.0   ---    5.8    5.8    5.8    4.2  1040.8  0.00   0.0     0     0.00      0     0.0  0.00   0.0   0.262   0.000   24.8    34    0.00   702    1    100.0   30 
21/06/19 12:00a    5.7    5.8    5.6    96    5.1   0.0   ---  0.00   0.0   ---    5.7    5.7    5.7    4.1  1040.7  0.00   0.0     0     0.00      0     0.0  0.00   0.0   0.264   0.000   24.7    34    0.00   701    1    100.0   30 
21/06/19 12:30a    5.2    5.7    5.2    96    4.6   0.0   ---  0.00   0.0   ---    5.2    5.2    5.2    3.6  1040.8  0.00   0.0     0     0.00      0     0.0  0.00   0.0   0.274   0.000   24.5    34    0.00   701    1    100.0   30 
21/06/19  1:00a    5.1    5.2    5.0    96    4.5   0.0   ---  0.00   0.0   ---    5.1    5.1    5.1    3.5  1041.0  0.00   0.0     0     0.00      0     0.0  0.00   0.0   0.277   0.000   24.4    34    0.00   700    1    100.0   30 
21/06/19  1:30a    4.7    5.1    4.6    96    4.1   0.0   ---  0.00   0.0   ---    4.7    4.7    4.7    3.1  1041.0  0.00   0.0     0     0.00      0     0.0  0.00   0.0   0.285   0.000   24.3    34    0.00   702    1    100.0   30 
21/06/19  2:00a    4.2    4.7    4.1    96    3.6   0.0   ---  0.00   0.0   ---    4.2    4.2    4.2    2.6  1041.3  0.00   0.0     0     0.00      0     0.0  0.00   0.0   0.295   0.000   24.2    34    0.00   672    1     98.2   30 
21/06/19  2:30a    4.3    4.4    4.2    96    3.8   0.0   ---  0.00   0.0   ---    4.3    4.4    4.4    2.7  1041.2  0.00   0.0     0     0.00      0     0.0  0.00   0.0   0.292   0.000   24.0    34    0.00   697    1    100.0   30 
21/06/19  3:00a    4.6    4.6    4.3    96    4.0   0.0   ---  0.00   0.0   ---    4.6    4.6    4.6    2.9  1041.1  0.25   0.0     0     0.00      0     0.0  0.00   0.0   0.287   0.000   23.9    34    0.00   702    1    100.0   30 
21/06/19  3:30a    4.8    4.8    4.6    96    4.2   0.0   ---  0.00   0.0   ---    4.8    4.9    4.9    3.2  1041.1  0.00   0.0     0     0.00      0     0.0  0.00   0.0   0.281   0.000   23.8    33    0.00   700    1    100.0   30 
21/06/19  4:00a    5.0    5.0    4.8   100    5.0   0.0   ---  0.00   0.0   ---    5.0    5.1    5.1    3.5  1040.9  0.00   0.0     0     0.00      0     0.0  0.00   0.0   0.278   0.000   23.8    33    0.00   701    1    100.0   30 
21/06/19  4:30a    5.3    5.3    5.0    97    4.8   0.0   ---  0.00   0.0   ---    5.3    5.3    5.3    3.7  1041.3  0.25   0.0     0     0.00      0     0.0  0.00   0.0   0.272   0.000   23.7    33    0.00   702    1    100.0   30 
21/06/19  5:00a    4.7    5.3    4.7    96    4.1   0.0   ---  0.00   0.0   ---    4.7    4.8    4.8    3.1  1041.2  0.00   0.0     0     0.00      0     0.0  0.00   0.0   0.284   0.000   23.7    33    0.00   702    1    100.0   30 
21/06/19  5:30a    4.8    4.8    4.6    97    4.3   0.0     S  0.00   3.2     S    4.8    4.8    4.8    3.2  1041.3  0.51   3.8     0     0.00      0     0.0  0.00   0.0   0.282   0.000   23.6    33    0.00   701    1    100.0   30 
21/06/19  6:00a    5.1    5.1    4.8    97    4.6   0.0   ---  0.00   0.0   ---    5.1    5.1    5.1    3.5  1041.3  0.00   0.0     0     0.00      0     0.0  0.00   0.0   0.277   0.000   23.5    33    0.00   701    1    100.0   30 
21/06/19  6:30a    4.4    5.1    4.4    96    3.8   0.0   ---  0.00   0.0   ---    4.4    4.4    4.4    2.8  1041.5  0.00   0.0     0     0.00      0     0.0  0.00   0.0   0.291   0.000   23.4    33    0.00   700    1    100.0   30 
21/06/19  7:00a    3.8    4.3    3.8    96    3.2   0.0   ---  0.00   0.0   ---    3.8    3.8    3.8    2.1  1041.7  0.00   0.0     0     0.00      0     0.0  0.00   0.0   0.303   0.000   23.3    33    0.00   700    1    100.0   30 
21/06/19  7:30a    3.9    3.9    3.7    97    3.5   0.0   ---  0.00   0.0   ---    3.9    3.9    3.9    2.3  1042.3  0.25   0.0     0     0.00      0     0.0  0.00   0.0   0.301   0.000   23.3    33    0.00   677    1     99.0   30 
21/06/19  8:00a    4.4    4.4    3.9    97    4.0   0.0   ---  0.00   0.0   ---    4.4    4.4    4.4    2.8  1042.7  1.27  21.1     3     0.13      9     0.0  0.00   0.0   0.291   0.000   23.5    33    0.00   680    1     99.4   30 
21/06/19  8:30a    4.9    4.9    4.4    97    4.5   0.0   ---  0.00   0.0   ---    4.9    5.0    5.0    3.6  1042.7  0.00   0.0    16     0.69     35     0.0  0.00   0.0   0.279   0.000   23.3    33    0.00   700    1    100.0   30 
21/06/19  9:00a    5.3    5.3    4.9    97    4.8   0.0   ---  0.00   0.0   ---    5.3    5.3    5.3    5.3  1043.4  0.00   0.0    49     2.11    125     0.0  0.00   0.0   0.272   0.000   23.2    34    0.03   703    1    100.0   30 
21/06/19  9:30a    6.2    6.2    5.3    97    5.7   0.0   ---  0.00   0.0   ---    6.2    6.3    6.3    7.2  1043.5  0.00   0.0    92     3.96    202     0.0  0.00   0.0   0.253   0.000   23.7    35    0.00   678    1     99.1   30 
21/06/19 10:00a    6.8    6.8    6.2    97    6.4   0.0   ENE  0.00   6.4   ENE    6.8    7.0    7.0    8.5  1043.8  0.25   0.0   126     5.42    348     0.0  0.00   0.0   0.240   0.000   24.3    35    0.05   702    1    100.0   30 
21/06/19 10:30a    7.7    7.8    6.8    97    7.3   0.0   ---  0.00   0.0   ---    7.7    7.9    7.9   11.3  1044.0  0.00   0.0   244    10.49    413     0.0  0.00   0.5   0.221   0.000   25.0    35    0.00   681    1     99.6   30 
21/06/19 11:00a    8.3    8.3    7.7    98    8.0   0.0   ENE  0.00   3.2   ENE    8.3    8.6    8.6   12.6  1043.9  0.00   0.0   297    12.77    476     0.5  0.11   0.8   0.208   0.000   25.5    36    0.00   700    1    100.0   30 
21/06/19 11:30a    9.2    9.2    8.3    98    8.9   0.0    NW  0.00   8.0    NW    9.2    9.5    9.5   13.7  1043.7  0.00   0.0   312    13.42    626     0.6  0.13   0.9   0.190   0.000   26.1    36    0.13   700    1    100.0   30 
21/06/19 12:00p    9.2    9.2    8.8    97    8.7   0.0    NW  0.00  11.3    NW    9.2    9.4    9.4   12.3  1043.2  0.00   0.0   225     9.68    410     0.3  0.06   0.9   0.191   0.000   26.7    36    0.13   700    1    100.0   30 
21/06/19 12:30p    9.1    9.4    9.1    96    8.5   0.0    NW  0.00   3.2    NW    9.1    9.3    9.3   10.0  1043.2  1.78  13.5    99     4.26    218     0.1  0.02   0.5   0.193   0.000   27.1    36    0.00   703    1    100.0   30 
21/06/19  1:00p    9.2    9.2    8.6    96    8.6   0.0     W  0.00   9.7     W    9.2    9.5    9.5   11.3  1042.9  0.51   8.6   162     6.97    469     0.4  0.09   0.9   0.190   0.000   27.4    36    0.08   700    1    100.0   30 
21/06/19  1:30p   10.3   10.3    9.2    96    9.7   0.0   ---  0.00   0.0   ---   10.3   10.6   10.6   14.9  1042.5  0.00   0.0   320    13.76    459     0.8  0.17   0.9   0.167   0.000   27.8    36    0.00   701    1    100.0   30 
21/06/19  2:00p   11.0   11.3   10.4    93    9.9   0.0   SSW  0.00  20.9    SW   11.0   11.2   11.2   15.2  1042.5  0.25   0.0   287    12.34    547     0.4  0.09   0.9   0.153   0.000   28.5    36    0.13   702    1    100.0   30 
21/06/19  2:30p   10.3   11.0   10.3    88    8.4   1.6   SSE  0.80  32.2     S   10.3   10.4   10.4   12.9  1042.6  0.76   8.1   183     7.87    431     0.1  0.02   0.6   0.167   0.000   28.7    35    0.00   676    1     98.8   30 
21/06/19  3:00p    8.9   10.3    8.9    90    7.4   1.6   ESE  0.80  24.1     S    8.9    9.1    9.1    9.0  1042.7  1.27   9.7    49     2.11     81     0.0  0.00   0.0   0.196   0.000   28.3    35    0.05   701    1    100.0   30 
21/06/19  3:30p    9.2    9.2    8.9    92    7.9   1.6   SSE  0.80  24.1     S    9.2    9.3    9.3   10.3  1043.2  0.00   0.0    91     3.91    288     0.0  0.00   0.0   0.191   0.000   27.8    35    0.00   678    1     99.1   30 
21/06/19  4:00p    8.8    9.2    8.8    92    7.6   0.0     S  0.00  12.9     S    8.8    9.0    9.0    8.7  1043.2  0.51   3.8    31     1.33     39     0.0  0.00   0.0   0.198   0.000   27.2    35    0.03   701    1    100.0   30 
21/06/19  4:30p    8.4    8.8    8.4    93    7.4   0.0   ---  0.00   0.0   ---    8.4    8.6    8.6    7.4  1043.3  0.00   0.0    30     1.29     44     0.0  0.00   0.0   0.206   0.000   26.5    35    0.00   680    1     99.4   30 
21/06/19  5:00p    8.2    8.5    8.2    93    7.1   1.6     S  0.80  29.0   SSW    8.2    8.3    8.3    6.9  1043.6  2.29  52.6    17     0.73     26     0.0  0.00   0.0   0.212   0.000   26.1    35    0.00   701    1    100.0   30 
21/06/19  5:30p    8.1    8.2    8.1    93    7.0   0.0     S  0.00   6.4     S    8.1    8.2    8.2    6.6  1043.5  0.51   8.9     0     0.00      0     0.0  0.00   0.0   0.214   0.000   26.4    35    0.00   665    1     97.2   30 
21/06/19  6:00p    7.7    8.1    7.7    94    6.8   0.0   ---  0.00   0.0   ---    7.7    7.9    7.9    6.3  1043.8  0.00   0.0     0     0.00      0     0.0  0.00   0.0   0.221   0.000   26.6    35    0.00   700    1    100.0   30 
21/06/19  6:30p    7.4    7.7    7.4    94    6.5   0.0   ---  0.00   0.0   ---    7.4    7.6    7.6    6.0  1044.1  0.00   0.0     0     0.00      0     0.0  0.00   0.0   0.227   0.000   26.5    34    0.00   701    1    100.0   30 
21/06/19  7:00p    7.7    7.7    7.4    95    6.9   0.0   ---  0.00   0.0   ---    7.7    7.8    7.8    6.3  1044.3  0.00   0.0     0     0.00      0     0.0  0.00   0.0   0.222   0.000   26.4    34    0.00   677    1     99.0   30 
21/06/19  7:30p    7.9    7.9    7.7    95    7.1   0.0   ---  0.00   0.0   ---    7.9    8.1    8.1    6.5  1044.6  0.00   0.0     0     0.00      0     0.0  0.00   0.0   0.218   0.000   26.4    34    0.00   701    1    100.0   30 
21/06/19  8:00p    7.5    7.9    7.5    95    6.8   0.0   ---  0.00   0.0   ---    7.5    7.7    7.7    6.1  1044.7  0.00   0.0     0     0.00      0     0.0  0.00   0.0   0.226   0.000   26.3    34    0.00   701    1    100.0   30 
21/06/19  8:30p    6.9    7.5    6.9    95    6.1   0.0   ---  0.00   0.0   ---    6.9    7.0    7.0    5.4  1044.9  0.00   0.0     0     0.00      0     0.0  0.00   0.0   0.238   0.000   26.2    34    0.00   702    1    100.0   30 
21/06/19  9:00p    6.7    6.9    6.7    96    6.1   0.0   ---  0.00   0.0   ---    6.7    6.8    6.8    5.3  1044.8  0.00   0.0     0     0.00      0     0.0  0.00   0.0   0.242   0.000   26.1    34    0.00   668    1     97.7   30 
21/06/19  9:30p    6.1    6.7    6.1    95    5.4   0.0   ---  0.00   0.0   ---    6.1    6.2    6.2    4.6  1044.8  0.00   0.0     0     0.00      0     0.0  0.00   0.0   0.255   0.000   25.9    34    0.00   700    1    100.0   30 
21/06/19 10:00p    5.3    6.1    5.3    95    4.6   0.0   ---  0.00   0.0   ---    5.3    5.4    5.4    3.8  1044.9  0.00   0.0     0     0.00      0     0.0  0.00   0.0   0.271   0.000   25.7    34    0.00   699    1    100.0   30 
21/06/19 10:30p    5.2    5.3    5.2    96    4.6   0.0   ---  0.00   0.0   ---    5.2    5.3    5.3    3.7  1045.0  0.00   0.0     0     0.00      0     0.0  0.00   0.0   0.273   0.000   25.5    34    0.00   699    1    100.0   30 
21/06/19 11:00p    5.3    5.4    5.2    96    4.7   0.0     S  0.00   1.6     S    5.3    5.3    5.3    3.7  1045.0  0.00   0.0     0     0.00      0     0.0  0.00   0.0   0.272   0.000   25.3    34    0.00   698    1    100.0   30 
21/06/19 11:30p    4.9    5.3    4.9    96    4.3   0.0   ---  0.00   0.0   ---    4.9    4.9    4.9    3.3  1045.0  0.00   0.0     0     0.00      0     0.0  0.00   0.0   0.280   0.000   25.2    34    0.00   700    1    100.0   30 
22/06/19 12:00a    4.5    4.9    4.5    96    3.9   0.0   ---  0.00   0.0   ---    4.5    4.6    4.6    2.9  1044.9  0.00   0.0     0     0.00      0     0.0  0.00   0.0   0.288   0.000   25.1    34    0.00   701    1    100.0   30 
22/06/19 12:30a    4.1    4.5    4.1    96    3.5   0.0   ---  0.00   0.0   ---    4.1    4.2    4.2    2.5  1044.7  0.00   0.0     0     0.00      0     0.0  0.00   0.0   0.296   0.000   24.9    34    0.00   674    1     98.5   30 
22/06/19  1:00a    4.1    4.2    4.0    96    3.5   0.0   ---  0.00   0.0   ---    4.1    4.1    4.1    2.4  1044.6  0.00   0.0     0     0.00      0     0.0  0.00   0.0   0.297   0.000   24.8    34    0.00   701    1    100.0   30 
22/06/19  1:30a    3.8    4.1    3.8    96    3.3   0.0   ---  0.00   0.0   ---    3.8    3.8    3.8    2.2  1044.5  0.00   0.0     0     0.00      0     0.0  0.00   0.0   0.302   0.000   24.6    34    0.00   703    1    100.0   30 
22/06/19  2:00a    4.1    4.1    3.8    97    3.6   0.0   ---  0.00   0.0   ---    4.1    4.1    4.1    2.4  1044.4  0.00   0.0     0     0.00      0     0.0  0.00   0.0   0.297   0.000   24.5    33    0.00   701    1    100.0   30 
22/06/19  2:30a    4.2    4.2    4.1    97    3.7   0.0   ---  0.00   0.0   ---    4.2    4.2    4.2    2.6  1044.5  0.00   0.0     0     0.00      0     0.0  0.00   0.0   0.295   0.000   24.4    33    0.00   700    1    100.0   30 
22/06/19  3:00a    4.2    4.2    4.1    97    3.7   0.0   ---  0.00   0.0   ---    4.2    4.2    4.2    2.6  1044.3  0.25   0.0     0     0.00      0     0.0  0.00   0.0   0.295   0.000   24.3    33    0.00   701    1    100.0   30 
22/06/19  3:30a    4.1    4.2    4.1    97    3.7   0.0   ---  0.00   0.0   ---    4.1    4.2    4.2    2.5  1044.2  0.00   0.0     0     0.00      0     0.0  0.00   0.0   0.296   0.000   24.3    33    0.00   678    1     99.1   30 
22/06/19  4:00a    4.3    4.3    4.1    97    3.8   0.0   ---  0.00   0.0   ---    4.3    4.3    4.3    2.7  1044.2  0.00   0.0     0     0.00      0     0.0  0.00   0.0   0.293   0.000   24.2    33    0.00   703    1    100.0   30 
22/06/19  4:30a    4.5    4.5    4.3    97    4.1   0.0   ---  0.00   0.0   ---    4.5    4.6    4.6    2.9  1044.1  0.00   0.0     0     0.00      0     0.0  0.00   0.0   0.288   0.000   24.1    33    0.00   701    1    100.0   30 
22/06/19  5:00a    4.6    4.6    4.4    97    4.1   0.0   ---  0.00   0.0   ---    4.6    4.6    4.6    2.9  1044.1  0.00   0.0     0     0.00      0     0.0  0.00   0.0   0.287   0.000   24.1    33    0.00   702    1    100.0   30 
22/06/19  5:30a    4.6    4.6    4.5    97    4.2   0.0   ---  0.00   0.0   ---    4.6    4.7    4.7    3.0  1044.2  0.00   0.0     0     0.00      0     0.0  0.00   0.0   0.286   0.000   24.0    33    0.00   702    1    100.0   30 
22/06/19  6:00a    4.8    4.8    4.6    97    4.3   0.0   ---  0.00   0.0   ---    4.8    4.8    4.8    3.2  1044.3  0.00   0.0     0     0.00      0     0.0  0.00   0.0   0.282   0.000   23.9    33    0.00   702    1    100.0   30 
22/06/19  6:30a    4.7    4.8    4.7    97    4.3   0.0   ---  0.00   0.0   ---    4.7    4.8    4.8    3.1  1044.5  0.00   0.0     0     0.00      0     0.0  0.00   0.0   0.284   0.000   23.9    33    0.00   701    1    100.0   30 
22/06/19  7:00a    4.8    4.9    4.7    97    4.4   0.0   ---  0.00   0.0   ---    4.8    4.9    4.9    3.2  1044.7  0.00   0.0     0     0.00      0     0.0  0.00   0.0   0.281   0.000   23.8    33    0.00   701    1    100.0   30 
22/06/19  7:30a    4.9    4.9    4.8    97    4.5   0.0   ---  0.00   0.0   ---    4.9    5.0    5.0    3.4  1045.0  0.00   0.0     0     0.00      0     0.0  0.00   0.0   0.279   0.000   23.8    33    0.00   699    1    100.0   30 
22/06/19  8:00a    5.3    5.3    4.9    97    4.8   0.0   ---  0.00   0.0   ---    5.3    5.3    5.3    3.8  1045.0  0.25   0.0     6     0.26     12     0.0  0.00   0.0   0.272   0.000   23.8    33    0.00   675    1     98.7   30 
22/06/19  8:30a    5.8    5.8    5.3    97    5.3   0.0   ---  0.00   0.0   ---    5.8    5.9    5.9    4.7  1045.1  0.00   0.0    28     1.20     42     0.0  0.00   0.0   0.262   0.000   23.8    33    0.00   700    1    100.0   30 
22/06/19  9:00a    6.2    6.2    5.8    97    5.7   0.0   ---  0.00   0.0   ---    6.2    6.3    6.3    6.7  1045.3  0.00   0.0    63     2.71     76     0.0  0.00   0.0   0.253   0.000   23.8    33    0.03   701    1    100.0   30 
22/06/19  9:30a    6.7    6.7    6.2    98    6.4   0.0   ---  0.00   0.0   ---    6.7    6.8    6.8    7.1  1045.6  0.00   0.0    62     2.67     97     0.0  0.00   0.0   0.243   0.000   23.8    33    0.00   700    1    100.0   30 
22/06/19 10:00a    7.1    7.1    6.7    98    6.8   0.0   ---  0.00   0.0   ---    7.1    7.3    7.3    8.5  1045.7  0.00   0.0   112     4.82    278     0.0  0.00   0.0   0.234   0.000   23.9    33    0.03   699    1    100.0   30 
22/06/19 10:30a    7.7    7.7    7.1    98    7.4   0.0   ---  0.00   0.0   ---    7.7    7.9    7.9   10.0  1045.6  0.00   0.0   164     7.05    380     0.0  0.00   0.0   0.222   0.000   24.0    33    0.00   682    1     99.7   30 
22/06/19 11:00a    8.3    8.4    7.7    98    8.0   0.0   ---  0.00   0.0   ---    8.3    8.5    8.5   11.9  1045.5  0.00   0.0   249    10.71    469     0.3  0.06   0.7   0.209   0.000   24.0    33    0.10   701    1    100.0   30 
22/06/19 11:30a    8.6    8.7    8.3    98    8.3   0.0   ---  0.00   0.0   ---    8.6    8.9    8.9   10.1  1045.0  0.00   0.0   123     5.29    241     0.0  0.00   0.0   0.203   0.000   24.2    33    0.00   702    1    100.0   30 
22/06/19 12:00p    9.3    9.3    8.7    98    9.0   0.0   ---  0.00   0.0   ---    9.3    9.6    9.6   12.7  1044.8  0.00   0.0   238    10.24    459     0.6  0.13   0.9   0.189   0.000   24.3    33    0.08   681    1     99.6   30 
22/06/19 12:30p    8.9    9.3    8.9    97    8.4   0.0   ---  0.00   0.0   ---    8.9    9.2    9.2    8.7  1044.5  1.27   7.6    38     1.63    114     0.0  0.00   0.0   0.197   0.000   24.4    33    0.00   696    1    100.0   30 
22/06/19  1:00p    9.3    9.3    8.9    97    8.9   0.0   ---  0.00   0.0   ---    9.3    9.6    9.6   11.5  1044.2  0.00   0.0   166     7.14    357     0.3  0.06   0.8   0.188   0.000   24.5    33    0.05   701    1    100.0   30 
22/06/19  1:30p   10.1   10.1    9.3    97    9.7   0.0   ---  0.00   0.0   ---   10.1   10.4   10.4   15.3  1043.8  0.00   0.0   360    15.48    515     0.9  0.19   1.1   0.171   0.000   24.6    33    0.00   699    1    100.0   30 
22/06/19  2:00p    9.7   10.1    9.7    96    9.1   0.0     S  0.00  12.9     S    9.7   10.0   10.0   11.7  1043.7  0.00   0.0   145     6.24    281     0.2  0.04   0.7   0.179   0.000   24.7    34    0.13   699    1    100.0   30 
22/06/19  2:30p    9.3    9.7    9.3    94    8.4   1.6     S  0.80  20.9     S    9.3    9.6    9.6    9.7  1043.7  0.00   0.0    62     2.67     77     0.0  0.00   0.0   0.188   0.000   24.8    34    0.00   702    1    100.0   30 
22/06/19  3:00p    9.4    9.4    9.3    94    8.5   0.0   ---  0.00   0.0   ---    9.4    9.7    9.7   10.3  1043.7  0.00   0.0    80     3.44     95     0.0  0.00   0.0   0.186   0.000   24.8    34    0.03   702    1    100.0   30 
22/06/19  3:30p    9.7    9.7    9.4    94    8.7   0.0   ---  0.00   0.0   ---    9.7    9.9    9.9   11.2  1043.7  0.00   0.0   100     4.30    109     0.0  0.00   0.0   0.181   0.000   24.8    34    0.00   702    1    100.0   30 
22/06/19  4:00p    9.9    9.9    9.7    93    8.9   0.0   ---  0.00   0.0   ---    9.9   10.2   10.2   10.8  1043.8  0.00   0.0    74     3.18    113     0.0  0.00   0.0   0.175   0.000   24.8    34    0.05   702    1    100.0   30 
22/06/19  4:30p    9.9   10.0    9.9    93    8.9   0.0     S  0.00  25.7     S    9.9   10.2   10.2    8.9  1044.1  0.51  12.4    28     1.20     42     0.0  0.00   0.0   0.175   0.000   24.9    34    0.00   679    1     99.3   30 
22/06/19  5:00p    9.0    9.9    9.0    93    7.9   0.0     S  0.00  25.7     S    9.0    9.2    9.2    7.6  1044.1  0.51  12.4     5     0.22      9     0.0  0.00   0.0   0.194   0.000   24.9    34    0.00   701    1    100.0   30 
22/06/19  5:30p    8.9    9.0    8.9    93    7.8   0.0   ---  0.00   0.0   ---    8.9    9.1    9.1    7.4  1044.1  0.00   0.0     0     0.00      0     0.0  0.00   0.0   0.197   0.000   24.8    35    0.00   699    1    100.0   30 
22/06/19  6:00p    8.8    8.9    8.8    94    7.9   0.0   ---  0.00   0.0   ---    8.8    8.9    8.9    7.3  1044.3  0.00   0.0     0     0.00      0     0.0  0.00   0.0   0.199   0.000   24.8    35    0.00   702    1    100.0   30 
22/06/19  6:30p    8.6    8.8    8.6    95    7.9   0.0   ---  0.00   0.0   ---    8.6    8.8    8.8    7.2  1044.4  0.00   0.0     0     0.00      0     0.0  0.00   0.0   0.203   0.000   24.8    35    0.00   701    1    100.0   30 
22/06/19  7:00p    8.4    8.6    8.4    95    7.6   0.0   ---  0.00   0.0   ---    8.4    8.6    8.6    6.9  1044.3  0.00   0.0     0     0.00      0     0.0  0.00   0.0   0.207   0.000   24.7    35    0.00   700    1    100.0   30 
22/06/19  7:30p    7.8    8.4    7.8    95    7.0   0.0   ---  0.00   0.0   ---    7.8    7.9    7.9    6.3  1044.3  0.00   0.0     0     0.00      0     0.0  0.00   0.0   0.220   0.000   24.6    35    0.00   702    1    100.0   30 
22/06/19  8:00p    7.1    7.8    7.1    95    6.4   0.0   ---  0.00   0.0   ---    7.1    7.2    7.2    5.5  1044.3  0.00   0.0     0     0.00      0     0.0  0.00   0.0   0.234   0.000   24.5    35    0.00   698    1    100.0   30 
22/06/19  8:30p    6.8    7.1    6.8    95    6.0   0.0   ---  0.00   0.0   ---    6.8    6.9    6.9    5.2  1044.2  0.00   0.0     0     0.00      0     0.0  0.00   0.0   0.241   0.000   24.4    35    0.00   702    1    100.0   30 
22/06/19  9:00p    6.7    6.8    6.6    96    6.1   0.0   ---  0.00   0.0   ---    6.7    6.8    6.8    5.1  1044.3  0.00   0.0     0     0.00      0     0.0  0.00   0.0   0.243   0.000   24.3    35    0.00   674    1     98.5   30 
22/06/19  9:30p    6.2    6.7    6.2    96    5.6   0.0   ---  0.00   0.0   ---    6.2    6.2    6.2    4.5  1044.2  0.00   0.0     0     0.00      0     0.0  0.00   0.0   0.253   0.000   24.3    35    0.00   701    1    100.0   30 
22/06/19 10:00p    5.9    6.2    5.8    96    5.3   0.0   ---  0.00   0.0   ---    5.9    5.9    5.9    4.2  1044.1  0.00   0.0     0     0.00      0     0.0  0.00   0.0   0.259   0.000   24.2    35    0.00   702    1    100.0   30 
22/06/19 10:30p    5.6    5.9    5.6    96    5.0   0.0   ---  0.00   0.0   ---    5.6    5.6    5.6    3.8  1044.1  0.25   0.0     0     0.00      0     0.0  0.00   0.0   0.266   0.000   24.2    35    0.00   674    1     98.5   30 
22/06/19 11:00p    5.2    5.6    5.2    96    4.6   0.0   ---  0.00   0.0   ---    5.2    5.2    5.2    3.4  1044.2  0.00   0.0     0     0.00      0     0.0  0.00   0.0   0.274   0.000   24.1    35    0.00   703    1    100.0   30 
22/06/19 11:30p    4.9    5.2    4.9    96    4.3   0.0   ---  0.00   0.0   ---    4.9    4.9    4.9    3.2  1044.3  0.00   0.0     0     0.00      0     0.0  0.00   0.0   0.280   0.000   24.0    35    0.00   702    1    100.0   30 
23/06/19 12:00a    4.5    4.9    4.5    96    3.9   0.0   ---  0.00   0.0   ---    4.5    4.6    4.6    2.8  1044.3  0.00   0.0     0     0.00      0     0.0  0.00   0.0   0.288   0.000   23.9    35    0.00   702    1    100.0   30 
23/06/19 12:30a    4.0    4.5    4.0    96    3.4   0.0   ---  0.00   0.0   ---    4.0    4.1    4.1    2.2  1044.3  0.00   0.0     0     0.00      0     0.0  0.00   0.0   0.299   0.000   23.9    35    0.00   701    1    100.0   30 
23/06/19  1:00a    3.8    4.0    3.7    96    3.2   0.0   ---  0.00   0.0   ---    3.8    3.8    3.8    1.9  1044.2  0.00   0.0     0     0.00      0     0.0  0.00   0.0   0.303   0.000   23.8    35    0.00   702    1    100.0   30 
23/06/19  1:30a    3.6    3.8    3.6    97    3.1   0.0   ---  0.00   0.0   ---    3.6    3.6    3.6    1.8  1044.2  0.00   0.0     0     0.00      0     0.0  0.00   0.0   0.308   0.000   23.7    35    0.00   700    1    100.0   30 
23/06/19  2:00a    3.3    3.6    3.3    96    2.7   0.0   ---  0.00   0.0   ---    3.3    3.3    3.3    1.4  1044.2  0.00   0.0     0     0.00      0     0.0  0.00   0.0   0.314   0.000   23.6    35    0.00   701    1    100.0   30 
23/06/19  2:30a    3.1    3.3    3.1    97    2.7   0.0   ---  0.00   0.0   ---    3.1    3.1    3.1    1.3  1044.4  0.00   0.0     0     0.00      0     0.0  0.00   0.0   0.317   0.000   23.6    34    0.00   701    1    100.0   30 
23/06/19  3:00a    3.2    3.2    3.1    97    2.7   0.0   ---  0.00   0.0   ---    3.2    3.2    3.2    1.3  1044.4  0.00   0.0     0     0.00      0     0.0  0.00   0.0   0.316   0.000   23.5    34    0.00   677    1     99.0   30 
23/06/19  3:30a    3.3    3.3    3.2    97    2.9   0.0   ---  0.00   0.0   ---    3.3    3.3    3.3    1.5  1044.5  0.00   0.0     0     0.00      0     0.0  0.00   0.0   0.313   0.000   23.4    34    0.00   703    1    100.0   30 
23/06/19  4:00a    3.6    3.6    3.3    97    3.1   0.0   ---  0.00   0.0   ---    3.6    3.6    3.6    1.8  1044.4  0.00   0.0     0     0.00      0     0.0  0.00   0.0   0.308   0.000   23.4    34    0.00   702    1    100.0   30 
23/06/19  4:30a    3.8    3.8    3.6    97    3.4   0.0   ---  0.00   0.0   ---    3.8    3.9    3.9    2.1  1044.5  0.00   0.0     0     0.00      0     0.0  0.00   0.0   0.302   0.000   23.3    34    0.00   703    1    100.0   30 
23/06/19  5:00a    4.1    4.1    3.8    97    3.6   0.0   ---  0.00   0.0   ---    4.1    4.1    4.1    2.3  1044.6  0.00   0.0     0     0.00      0     0.0  0.00   0.0   0.297   0.000   23.3    34    0.00   679    1     99.3   30 
23/06/19  5:30a    4.3    4.3    4.1    97    3.9   0.0   ---  0.00   0.0   ---    4.3    4.4    4.4    2.6  1044.5  0.00   0.0     0     0.00      0     0.0  0.00   0.0   0.292   0.000   23.3    34    0.00   700    1    100.0   30 
23/06/19  6:00a    4.7    4.7    4.3    97    4.2   0.0   ---  0.00   0.0   ---    4.7    4.7    4.7    2.9  1044.7  0.00   0.0     0     0.00      0     0.0  0.00   0.0   0.285   0.000   23.2    34    0.00   701    1    100.0   30 
23/06/19  6:30a    4.8    4.8    4.7    97    4.4   0.0   ---  0.00   0.0   ---    4.8    4.9    4.9    3.1  1044.8  0.00   0.0     0     0.00      0     0.0  0.00   0.0   0.281   0.000   23.2    34    0.00   699    1    100.0   30 
23/06/19  7:00a    5.0    5.0    4.8    98    4.7   0.0   ---  0.00   0.0   ---    5.0    5.1    5.1    3.3  1045.3  0.00   0.0     0     0.00      0     0.0  0.00   0.0   0.278   0.000   23.2    34    0.00   703    1    100.0   30 
23/06/19  7:30a    5.3    5.3    5.0    98    5.0   0.0   ---  0.00   0.0   ---    5.3    5.4    5.4    3.6  1045.3  0.00   0.0     0     0.00      0     0.0  0.00   0.0   0.272   0.000   23.2    34    0.00   673    1     98.4   30 
23/06/19  8:00a    5.2    5.3    5.2    97    4.8   0.0   ---  0.00   0.0   ---    5.2    5.3    5.3    3.6  1045.6  0.00   0.0     3     0.13      9     0.0  0.00   0.0   0.273   0.000   23.2    34    0.00   699    1    100.0   30 
23/06/19  8:30a    5.1    5.2    5.1    97    4.6   0.0   ---  0.00   0.0   ---    5.1    5.1    5.1    3.6  1046.0  0.00   0.0    17     0.73     28     0.0  0.00   0.0   0.277   0.000   23.2    34    0.00   669    1     97.8   30 
23/06/19  9:00a    4.9    5.1    4.9    97    4.5   0.0   ---  0.00   0.0   ---    4.9    4.9    4.9    4.7  1046.2  0.00   0.0    38     1.63     46     0.0  0.00   0.0   0.280   0.000   23.2    34    0.00   699    1    100.0   30 
23/06/19  9:30a    4.8    4.9    4.8    97    4.4   0.0     S  0.00   9.7     S    4.8    4.9    4.9    4.9  1046.5  0.00   0.0    54     2.32     62     0.0  0.00   0.0   0.281   0.000   23.3    34    0.00   702    1    100.0   30 
23/06/19 10:00a    4.8    4.9    4.7    98    4.5   0.0     S  0.00   4.8     S    4.8    4.9    4.9    5.3  1046.5  0.00   0.0    74     3.18     88     0.0  0.00   0.0   0.281   0.000   23.3    34    0.03   698    1    100.0   30 
23/06/19 10:30a    4.8    4.9    4.8    98    4.5   0.0   ---  0.00   0.0   ---    4.8    4.9    4.9    5.9  1046.4  0.00   0.0   107     4.60    127     0.0  0.00   0.0   0.281   0.000   23.3    34    0.00   701    1    100.0   30 
23/06/19 11:00a    5.1    5.1    4.8    98    4.8   0.0   ---  0.00   0.0   ---    5.1    5.2    5.2    6.2  1046.5  0.00   0.0   113     4.86    134     0.0  0.00   0.0   0.277   0.000   23.4    34    0.05   701    1    100.0   30 
23/06/19 11:30a    5.3    5.3    5.1    98    5.0   0.0   ---  0.00   0.0   ---    5.3    5.4    5.4    6.6  1046.2  0.00   0.0   128     5.50    141     0.0  0.00   0.0   0.272   0.000   23.5    34    0.00   679    1     99.3   30 
23/06/19 12:00p    5.4    5.4    5.3    98    5.2   0.0   ---  0.00   0.0   ---    5.4    5.6    5.6    6.7  1045.9  0.00   0.0   125     5.38    137     0.0  0.00   0.0   0.269   0.000   23.5    33    0.05   702    1    100.0   30 
23/06/19 12:30p    5.7    5.7    5.4    98    5.4   0.0     S  0.00   8.0     S    5.7    5.8    5.8    7.1  1045.7  0.00   0.0   140     6.02    163     0.0  0.00   0.0   0.264   0.000   23.6    33    0.00   699    1    100.0   30 
23/06/19  1:00p    5.8    5.8    5.6    98    5.5   0.0   ---  0.00   0.0   ---    5.8    5.9    5.9    7.3  1045.6  0.00   0.0   138     5.93    153     0.0  0.00   0.0   0.260   0.000   23.6    33    0.05   700    1    100.0   30 
23/06/19  1:30p    6.3    6.3    5.8    98    6.0   0.0   ---  0.00   0.0   ---    6.3    6.4    6.4    7.8  1045.3  0.00   0.0   139     5.98    158     0.0  0.00   0.0   0.251   0.000   23.7    34    0.00   702    1    100.0   30 
23/06/19  2:00p    6.4    6.4    6.3    98    6.2   0.0   ---  0.00   0.0   ---    6.4    6.6    6.6    7.7  1045.0  0.00   0.0   113     4.86    121     0.0  0.00   0.0   0.248   0.000   23.7    34    0.05   703    1    100.0   30 
23/06/19  2:30p    6.8    6.8    6.4    98    6.5   0.0   ---  0.00   0.0   ---    6.8    6.9    6.9    7.8  1045.0  0.00   0.0    99     4.26    111     0.0  0.00   0.0   0.241   0.000   23.8    34    0.00   702    1    100.0   30 
23/06/19  3:00p    7.1    7.1    6.8    98    6.8   0.0   ---  0.00   0.0   ---    7.1    7.3    7.3    7.9  1045.0  0.00   0.0    78     3.35    102     0.0  0.00   0.0   0.234   0.000   23.9    34    0.03   702    1    100.0   30 
23/06/19  3:30p    7.2    7.3    7.1    98    6.9   0.0   ---  0.00   0.0   ---    7.2    7.4    7.4    7.7  1045.2  0.00   0.0    59     2.54     65     0.0  0.00   0.0   0.231   0.000   23.9    34    0.00   703    1    100.0   30 
23/06/19  4:00p    7.1    7.3    7.1    98    6.8   0.0   ---  0.00   0.0   ---    7.1    7.3    7.3    7.3  1045.3  0.00   0.0    45     1.94     53     0.0  0.00   0.0   0.234   0.000   23.9    34    0.03   672    1     98.2   30 
23/06/19  4:30p    6.9    7.1    6.9    97    6.5   0.0     S  0.00  12.9     S    6.9    7.1    7.1    6.0  1045.1  0.00   0.0    39     1.68     58     0.0  0.00   0.0   0.237   0.000   23.9    34    0.00   702    1    100.0   30 
23/06/19  5:00p    6.7    6.9    6.7    97    6.3   0.0   ---  0.00   0.0   ---    6.7    6.9    6.9    5.4  1045.2  0.00   0.0    14     0.60     26     0.0  0.00   0.0   0.242   0.000   23.9    34    0.00   678    1     99.1   30 
23/06/19  5:30p    6.2    6.7    6.2    96    5.6   0.0   ---  0.00   0.0   ---    6.2    6.3    6.3    4.7  1045.6  0.00   0.0     1     0.04      5     0.0  0.00   0.0   0.252   0.000   23.8    34    0.00   702    1    100.0   30 
23/06/19  6:00p    5.8    6.2    5.8    96    5.2   0.0   ---  0.00   0.0   ---    5.8    5.8    5.8    4.2  1045.5  0.00   0.0     0     0.00      0     0.0  0.00   0.0   0.262   0.000   23.7    34    0.00   676    1     98.8   30 
23/06/19  6:30p    5.6    5.8    5.6    96    5.0   0.0   ---  0.00   0.0   ---    5.6    5.7    5.7    4.0  1045.4  0.00   0.0     0     0.00      0     0.0  0.00   0.0   0.265   0.000   23.6    34    0.00   701    1    100.0   30 
23/06/19  7:00p    5.5    5.6    5.4    97    5.1   0.0   ---  0.00   0.0   ---    5.5    5.6    5.6    3.9  1045.6  0.00   0.0     0     0.00      0     0.0  0.00   0.0   0.267   0.000   23.5    34    0.00   703    1    100.0   30 
23/06/19  7:30p    5.4    5.5    5.4    97    5.0   0.0   ---  0.00   0.0   ---    5.4    5.5    5.5    3.8  1046.0  0.00   0.0     0     0.00      0     0.0  0.00   0.0   0.269   0.000   23.5    34    0.00   700    1    100.0   30 
23/06/19  8:00p    5.6    5.6    5.4    97    5.1   0.0   ---  0.00   0.0   ---    5.6    5.6    5.6    3.9  1046.2  0.00   0.0     0     0.00      0     0.0  0.00   0.0   0.266   0.000   23.4    34    0.00   701    1    100.0   30 
23/06/19  8:30p    5.7    5.7    5.6    97    5.3   0.0   ---  0.00   0.0   ---    5.7    5.8    5.8    4.2  1046.4  0.00   0.0     0     0.00      0     0.0  0.00   0.0   0.263   0.000   23.4    34    0.00   698    1    100.0   30 
23/06/19  9:00p    5.8    5.8    5.7    97    5.3   0.0   ---  0.00   0.0   ---    5.8    5.9    5.9    4.2  1046.7  0.00   0.0     0     0.00      0     0.0  0.00   0.0   0.262   0.000   23.4    34    0.00   700    1    100.0   30 
23/06/19  9:30p    6.0    6.0    5.8    97    5.6   0.0   ---  0.00   0.0   ---    6.0    6.1    6.1    4.4  1047.0  0.00   0.0     0     0.00      0     0.0  0.00   0.0   0.257   0.000   23.4    34    0.00   699    1    100.0   30 
23/06/19 10:00p    6.3    6.3    5.9    97    5.8   0.0   ---  0.00   0.0   ---    6.3    6.4    6.4    4.7  1046.9  0.00   0.0     0     0.00      0     0.0  0.00   0.0   0.251   0.000   23.4    34    0.00   677    1     99.0   30 
23/06/19 10:30p    6.3    6.4    6.3    97    5.9   0.0   ---  0.00   0.0   ---    6.3    6.4    6.4    4.8  1046.9  0.00   0.0     0     0.00      0     0.0  0.00   0.0   0.250   0.000   23.4    34    0.00   702    1    100.0   30 
23/06/19 11:00p    6.6    6.7    6.3    97    6.2   0.0   ---  0.00   0.0   ---    6.6    6.8    6.8    5.2  1046.6  0.00   0.0     0     0.00      0     0.0  0.00   0.0   0.244   0.000   23.4    34    0.00   701    1    100.0   30 
23/06/19 11:30p    6.5    6.6    6.5    97    6.1   0.0   ---  0.00   0.0   ---    6.5    6.7    6.7    5.0  1046.6  0.00   0.0     0     0.00      0     0.0  0.00   0.0   0.247   0.000   23.3    34    0.00   678    1     99.1   30 
24/06/19 12:00a    6.3    6.5    6.3    97    5.8   0.0   ---  0.00   0.0   ---    6.3    6.4    6.4    4.7  1046.6  0.00   0.0     0     0.00      0     0.0  0.00   0.0   0.251   0.000   23.3    34    0.00   702    1    100.0   30 
24/06/19 12:30a    5.9    6.3    5.9    97    5.5   0.0   ---  0.00   0.0   ---    5.9    6.1    6.1    4.4  1046.9  0.00   0.0     0     0.00      0     0.0  0.00   0.0   0.258   0.000   23.3    34    0.00   702    1    100.0   30 
24/06/19  1:00a    5.8    5.9    5.8    97    5.3   0.0   ---  0.00   0.0   ---    5.8    5.9    5.9    4.2  1046.9  0.00   0.0     0     0.00      0     0.0  0.00   0.0   0.262   0.000   23.3    34    0.00   702    1    100.0   30 
24/06/19  1:30a    5.9    5.9    5.8    97    5.4   0.0   ---  0.00   0.0   ---    5.9    6.0    6.0    4.3  1046.9  0.00   0.0     0     0.00      0     0.0  0.00   0.0   0.259   0.000   23.2    34    0.00   697    1    100.0   30 
24/06/19  2:00a    5.8    5.9    5.8    97    5.4   0.0   ---  0.00   0.0   ---    5.8    5.9    5.9    4.3  1046.9  0.00   0.0     0     0.00      0     0.0  0.00   0.0   0.260   0.000   23.2    34    0.00   702    1    100.0   30 
24/06/19  2:30a    5.9    5.9    5.8    97    5.4   0.0     S  0.00   8.0     S    5.9    6.0    6.0    4.3  1047.1  0.00   0.0     0     0.00      0     0.0  0.00   0.0   0.259   0.000   23.2    34    0.00   699    1    100.0   30 
24/06/19  3:00a    5.8    5.9    5.8    97    5.4   0.0   ---  0.00   0.0   ---    5.8    5.9    5.9    4.3  1047.3  0.00   0.0     0     0.00      0     0.0  0.00   0.0   0.260   0.000   23.2    34    0.00   702    1    100.0   30 
24/06/19  3:30a    5.9    6.0    5.8    97    5.5   0.0   ---  0.00   0.0   ---    5.9    6.1    6.1    4.4  1047.2  0.00   0.0     0     0.00      0     0.0  0.00   0.0   0.258   0.000   23.2    34    0.00   701    1    100.0   30 
24/06/19  4:00a    5.9    5.9    5.9    97    5.5   0.0   ---  0.00   0.0   ---    5.9    6.1    6.1    4.4  1047.2  0.00   0.0     0     0.00      0     0.0  0.00   0.0   0.258   0.000   23.2    34    0.00   701    1    100.0   30 
24/06/19  4:30a    5.9    5.9    5.8    96    5.3   0.0   ---  0.00   0.0   ---    5.9    5.9    5.9    4.3  1047.4  0.00   0.0     0     0.00      0     0.0  0.00   0.0   0.259   0.000   23.2    34    0.00   675    1     98.7   30 
24/06/19  5:00a    5.8    5.9    5.8    96    5.2   0.0   ---  0.00   0.0   ---    5.8    5.8    5.8    4.2  1047.5  0.00   0.0     0     0.00      0     0.0  0.00   0.0   0.262   0.000   23.1    34    0.00   675    1     98.7   30 
24/06/19  5:30a    5.8    5.8    5.8    95    5.0   0.0     S  0.00   3.2     S    5.8    5.8    5.8    4.2  1047.3  0.00   0.0     0     0.00      0     0.0  0.00   0.0   0.262   0.000   23.1    34    0.00   702    1    100.0   30 
24/06/19  6:00a    5.7    5.8    5.6    94    4.8   0.0     S  0.00   6.4     S    5.7    5.7    5.7    4.1  1047.7  0.00   0.0     0     0.00      0     0.0  0.00   0.0   0.264   0.000   23.1    34    0.00   701    1    100.0   30 
24/06/19  6:30a    5.3    5.7    5.3    94    4.4   0.0     S  0.00   6.4     S    5.3    5.4    5.4    3.7  1047.6  0.00   0.0     0     0.00      0     0.0  0.00   0.0   0.271   0.000   23.1    34    0.00   701    1    100.0   30 
24/06/19  7:00a    5.1    5.3    5.1    94    4.2   0.0   ---  0.00   0.0   ---    5.1    5.2    5.2    3.4  1047.8  0.00   0.0     0     0.00      0     0.0  0.00   0.0   0.275   0.000   23.1    34    0.00   701    1    100.0   30 
24/06/19  7:30a    4.8    5.1    4.8    94    3.9   0.0     S  0.00   9.7     S    4.8    4.9    4.9    3.2  1048.1  0.00   0.0     0     0.00      0     0.0  0.00   0.0   0.281   0.000   22.9    34    0.00   701    1    100.0   30 
24/06/19  8:00a    4.3    4.8    4.3    94    3.4   0.0   SSE  0.00   9.7     S    4.3    4.3    4.3    2.6  1048.3  0.00   0.0     6     0.26     14     0.0  0.00   0.0   0.293   0.000   22.9    34    0.00   703    1    100.0   30 
24/06/19  8:30a    4.2    4.3    4.2    95    3.5   0.0   ---  0.00   0.0   ---    4.2    4.3    4.3    2.9  1048.4  0.00   0.0    26     1.12     39     0.0  0.00   0.0   0.294   0.000   22.9    34    0.00   701    1    100.0   30 
24/06/19  9:00a    4.1    4.2    4.1    95    3.3   0.0   SSE  0.00   9.7   SSE    4.1    4.1    4.1    4.1  1048.3  0.00   0.0    53     2.28     77     0.0  0.00   0.0   0.297   0.000   22.8    34    0.03   702    1    100.0   30 
24/06/19  9:30a    3.9    4.1    3.8    95    3.2   0.0   SSE  0.00   9.7   SSE    3.9    3.9    3.9    5.1  1048.3  0.00   0.0   106     4.56    130     0.0  0.00   0.0   0.301   0.000   22.7    35    0.00   701    1    100.0   30 
24/06/19 10:00a    4.3    4.3    3.9    95    3.6   0.0   SSE  0.00  11.3   SSE    4.3    4.4    4.4    6.2  1048.3  0.00   0.0   144     6.19    207     0.0  0.00   0.0   0.292   0.000   22.8    35    0.05   663    1     96.9   30 
24/06/19 10:30a    5.4    5.4    4.3    95    4.7   0.0   ---  0.00   0.0   ---    5.4    5.4    5.4    9.7  1048.2  0.00   0.0   305    13.12    367     0.3  0.06   0.6   0.270   0.000   23.3    36    0.00   702    1    100.0   30 
24/06/19 11:00a    6.8    6.8    5.4    91    5.5   0.0   SSE  0.00   8.0   SSE    6.8    6.9    6.9   11.7  1047.8  0.00   0.0   393    16.90    413     0.7  0.15   0.8   0.240   0.000   24.3    35    0.13   700    1    100.0   30 
24/06/19 11:30a    7.9    7.9    6.8    86    5.7   0.0   SSE  0.00   3.2   SSE    7.9    7.9    7.9   12.9  1047.2  0.25   0.0   430    18.49    443     0.9  0.19   1.0   0.218   0.000   25.1    35    0.00   702    1    100.0   30 
24/06/19 12:00p    9.5    9.5    7.9    81    6.4   0.0   SSE  0.00   9.7   SSE    9.5    9.4    9.4   14.4  1046.8  0.00   0.0   453    19.48    461     1.0  0.21   1.1   0.184   0.000   26.0    35    0.18   700    1    100.0   30 
24/06/19 12:30p   11.2   11.2    9.5    74    6.7   0.0   SSE  0.00  12.9   SSE   11.2   10.9   10.9   15.9  1046.3  0.00   0.0   462    19.87    464     1.1  0.24   1.1   0.149   0.000   26.3    34    0.00   702    1    100.0   30 
24/06/19  1:00p   12.4   12.4   11.2    68    6.7   0.0   SSE  0.00  12.9   SSE   12.4   12.0   12.0   17.1  1045.9  0.00   0.0   458    19.70    462     1.1  0.24   1.1   0.123   0.000   26.7    34    0.23   700    1    100.0   30 
24/06/19  1:30p   13.3   13.3   12.4    64    6.6   0.0   SSE  0.00   3.2   SSE   13.3   12.7   12.7   17.7  1045.4  0.00   0.0   438    18.84    452     1.1  0.24   1.1   0.105   0.000   27.1    34    0.00   703    1    100.0   30 
24/06/19  2:00p   13.8   13.8   13.3    64    7.1   0.0   SSE  0.00   8.0   SSE   13.8   13.2   13.2   18.2  1045.1  0.00   0.0   405    17.42    422     1.0  0.21   1.0   0.095   0.000   27.4    34    0.20   700    1    100.0   30 
24/06/19  2:30p   14.2   14.2   13.8    58    6.1   0.0   SSE  0.00   6.4   SSE   14.2   13.4   13.4   18.2  1045.1  0.00   0.0   361    15.53    385     0.8  0.17   0.9   0.086   0.000   27.8    33    0.00   702    1    100.0   30 
24/06/19  3:00p   14.1   14.2   14.1    60    6.5   0.0   SSE  0.00   3.2   SSE   14.1   13.4   13.4   17.7  1045.2  0.00   0.0   303    13.03    332     0.6  0.13   0.7   0.088   0.000   27.8    32    0.18   702    1    100.0   30 
24/06/19  3:30p   14.3   14.3   14.1    61    6.9   0.0   ---  0.00   0.0   ---   14.3   13.7   13.7   17.0  1045.4  0.00   0.0   232     9.98    269     0.0  0.00   0.0   0.083   0.000   27.6    32    0.00   700    1    100.0   30 
24/06/19  4:00p   13.6   14.3   13.6    62    6.5   0.0   SSE  0.00   3.2   SSE   13.6   12.9   12.9   14.1  1045.6  0.00   0.0   108     4.64    188     0.0  0.00   0.0   0.098   0.000   27.2    31    0.10   701    1    100.0   30 
24/06/19  4:30p   12.1   13.6   12.1    70    6.7   0.0   ---  0.00   0.0   ---   12.1   11.7   11.7   10.1  1045.9  0.00   0.0    20     0.86     23     0.0  0.00   0.0   0.131   0.000   26.8    31    0.00   700    1    100.0   30 
24/06/19  5:00p   10.6   12.0   10.6    76    6.5   0.0   ---  0.00   0.0   ---   10.6   10.4   10.4    8.7  1046.1  0.00   0.0    11     0.47     16     0.0  0.00   0.0   0.162   0.000   26.1    32    0.03   703    1    100.0   30 
24/06/19  5:30p    9.1   10.6    9.1    82    6.2   0.0   ---  0.00   0.0   ---    9.1    9.1    9.1    7.2  1046.4  0.00   0.0     0     0.00      0     0.0  0.00   0.0   0.192   0.000   25.6    32    0.00   675    1     98.7   30 
24/06/19  6:00p    7.5    9.1    7.5    84    5.0   0.0   ---  0.00   0.0   ---    7.5    7.4    7.4    5.5  1046.6  0.00   0.0     0     0.00      0     0.0  0.00   0.0   0.226   0.000   25.7    33    0.00   702    1    100.0   30 
24/06/19  6:30p    6.6    7.5    6.6    88    4.7   0.0   ---  0.00   0.0   ---    6.6    6.6    6.6    4.6  1046.7  0.00   0.0     0     0.00      0     0.0  0.00   0.0   0.245   0.000   26.0    32    0.00   702    1    100.0   30 
24/06/19  7:00p    6.1    6.6    6.1    90    4.6   0.0   ---  0.00   0.0   ---    6.1    6.1    6.1    4.2  1046.9  0.00   0.0     0     0.00      0     0.0  0.00   0.0   0.255   0.000   25.8    32    0.00   675    1     98.7   30 
24/06/19  7:30p    5.3    6.1    5.3    91    4.0   0.0   ---  0.00   0.0   ---    5.3    5.3    5.3    3.4  1047.1  0.00   0.0     0     0.00      0     0.0  0.00   0.0   0.271   0.000   24.8    33    0.00   701    1    100.0   30 
24/06/19  8:00p    4.7    5.3    4.7    92    3.5   0.0   ---  0.00   0.0   ---    4.7    4.7    4.7    2.7  1047.3  0.00   0.0     0     0.00      0     0.0  0.00   0.0   0.285   0.000   24.1    33    0.00   700    1    100.0   30 
24/06/19  8:30p    4.2    4.6    4.2    92    3.0   0.0   ---  0.00   0.0   ---    4.2    4.2    4.2    2.2  1047.3  0.00   0.0     0     0.00      0     0.0  0.00   0.0   0.295   0.000   23.8    33    0.00   702    1    100.0   30 
24/06/19  9:00p    3.7    4.2    3.7    93    2.7   0.0   ---  0.00   0.0   ---    3.7    3.7    3.7    1.7  1047.5  0.00   0.0     0     0.00      0     0.0  0.00   0.0   0.304   0.000   24.2    33    0.00   663    1     96.9   30 
24/06/19  9:30p    3.3    3.7    3.3    94    2.5   0.0   ---  0.00   0.0   ---    3.3    3.3    3.3    1.3  1047.6  0.00   0.0     0     0.00      0     0.0  0.00   0.0   0.313   0.000   24.3    33    0.00   698    1    100.0   30 
24/06/19 10:00p    2.8    3.3    2.8    94    2.0   0.0   ---  0.00   0.0   ---    2.8    2.8    2.8    0.8  1047.5  0.00   0.0     0     0.00      0     0.0  0.00   0.0   0.323   0.000   24.2    33    0.00   703    1    100.0   30 
24/06/19 10:30p    2.1    2.8    2.1    94    1.2   0.0   ---  0.00   0.0   ---    2.1    2.1    2.1    0.1  1047.6  0.00   0.0     0     0.00      0     0.0  0.00   0.0   0.338   0.000   24.1    32    0.00   673    1     98.4   30 
24/06/19 11:00p    1.9    2.1    1.9    94    1.0   0.0   ---  0.00   0.0   ---    1.9    1.9    1.9   -0.2  1047.2  0.00   0.0     0     0.00      0     0.0  0.00   0.0   0.343   0.000   23.9    32    0.00   703    1    100.0   30 
24/06/19 11:30p    1.8    1.9    1.6    94    0.9   0.0   ---  0.00   0.0   ---    1.8    1.8    1.8   -0.3  1047.4  0.00   0.0     0     0.00      0     0.0  0.00   0.0   0.345   0.000   23.8    32    0.00   700    1    100.0   30 
25/06/19 12:00a    1.0    1.8    1.0    94    0.1   0.0   ---  0.00   0.0   ---    1.0    0.9    0.9   -1.2  1047.5  0.00   0.0     0     0.00      0     0.0  0.00   0.0   0.361   0.000   23.6    32    0.00   700    1    100.0   30 
25/06/19 12:30a    0.8    0.9    0.7    95    0.1   0.0   ---  0.00   0.0   ---    0.8    0.7    0.7   -1.4  1047.5  0.00   0.0     0     0.00      0     0.0  0.00   0.0   0.366   0.000   23.4    32    0.00   654    1     95.6   30 
25/06/19  1:00a    0.5    0.8    0.4    94   -0.4   0.0   ---  0.00   0.0   ---    0.5    0.4    0.4   -1.7  1047.4  0.00   0.0     0     0.00      0     0.0  0.00   0.0   0.372   0.000   23.2    31    0.00   701    1    100.0   30 
25/06/19  1:30a    0.4    0.5    0.3    95   -0.3   0.0   ---  0.00   0.0   ---    0.4    0.3    0.3   -1.8  1047.5  0.00   0.0     0     0.00      0     0.0  0.00   0.0   0.374   0.000   23.1    31    0.00   700    1    100.0   30 
25/06/19  2:00a    0.4    0.5    0.4    95   -0.3   0.0   ---  0.00   0.0   ---    0.4    0.3    0.3   -1.8  1047.2  0.00   0.0     0     0.00      0     0.0  0.00   0.0   0.374   0.000   22.8    31    0.00   700    1    100.0   30 
25/06/19  2:30a    0.2    0.4    0.2    95   -0.5   0.0   ---  0.00   0.0   ---    0.2    0.1    0.1   -2.0  1047.1  0.00   0.0     0     0.00      0     0.0  0.00   0.0   0.378   0.000   22.8    31    0.00   701    1    100.0   30 
25/06/19  3:00a    0.2    0.4    0.2    95   -0.5   0.0   ---  0.00   0.0   ---    0.2    0.1    0.1   -2.0  1047.1  0.00   0.0     0     0.00      0     0.0  0.00   0.0   0.378   0.000   22.6    31    0.00   702    1    100.0   30 
25/06/19  3:30a   -0.3    0.2   -0.3    95   -1.0   0.0   ---  0.00   0.0   ---   -0.3   -0.3   -0.3   -2.5  1047.1  0.00   0.0     0     0.00      0     0.0  0.00   0.0   0.388   0.000   22.4    31    0.00   701    1    100.0   30 
25/06/19  4:00a    0.1    0.1   -0.3    95   -0.6   0.0   ---  0.00   0.0   ---    0.1    0.0    0.0   -2.2  1047.1  0.00   0.0     0     0.00      0     0.0  0.00   0.0   0.381   0.000   22.4    30    0.00   703    1    100.0   30 
25/06/19  4:30a   -0.2    0.1   -0.3    95   -0.9   0.0   ---  0.00   0.0   ---   -0.2   -0.3   -0.3   -2.4  1046.9  0.00   0.0     0     0.00      0     0.0  0.00   0.0   0.387   0.000   22.2    30    0.00   701    1    100.0   30 
25/06/19  5:00a   -0.3   -0.2   -0.3    95   -1.0   0.0   ---  0.00   0.0   ---   -0.3   -0.4   -0.4   -2.6  1047.2  0.00   0.0     0     0.00      0     0.0  0.00   0.0   0.389   0.000   22.1    30    0.00   676    1     98.8   30 
25/06/19  5:30a   -0.4   -0.3   -0.5    96   -0.9   0.0   ---  0.00   0.0   ---   -0.4   -0.4   -0.4   -2.6  1047.4  0.00   0.0     0     0.00      0     0.0  0.00   0.0   0.390   0.000   22.0    30    0.00   701    1    100.0   30 
25/06/19  6:00a   -0.2   -0.2   -0.4    96   -0.7   0.0   ---  0.00   0.0   ---   -0.2   -0.2   -0.2   -2.4  1047.7  0.00   0.0     0     0.00      0     0.0  0.00   0.0   0.385   0.000   21.8    30    0.00   701    1    100.0   30 
25/06/19  6:30a   -0.4   -0.2   -0.4    96   -1.0   0.0   ---  0.00   0.0   ---   -0.4   -0.5   -0.5   -2.7  1048.0  0.00   0.0     0     0.00      0     0.0  0.00   0.0   0.391   0.000   21.7    30    0.00   703    1    100.0   30 
25/06/19  7:00a   -0.4   -0.4   -0.5    96   -0.9   0.0   ---  0.00   0.0   ---   -0.4   -0.4   -0.4   -2.6  1048.2  0.00   0.0     0     0.00      0     0.0  0.00   0.0   0.390   0.000   21.7    30    0.00   702    1    100.0   30 
25/06/19  7:30a   -0.3   -0.3   -0.5    96   -0.9   0.0   ---  0.00   0.0   ---   -0.3   -0.4   -0.4   -2.5  1048.5  0.00   0.0     1     0.04      5     0.0  0.00   0.0   0.389   0.000   22.0    29    0.00   701    1    100.0   30 
25/06/19  8:00a   -0.3   -0.3   -0.4    96   -0.9   0.0   ---  0.00   0.0   ---   -0.3   -0.4   -0.4   -2.4  1048.8  0.00   0.0     7     0.30     14     0.0  0.00   0.0   0.389   0.000   22.4    29    0.00   679    1     99.3   30 
25/06/19  8:30a   -0.1   -0.1   -0.4    96   -0.6   0.0   ---  0.00   0.0   ---   -0.1   -0.1   -0.1   -1.9  1048.9  0.00   0.0    26     1.12     40     0.0  0.00   0.0   0.383   0.000   22.2    29    0.00   703    1    100.0   30 
25/06/19  9:00a    1.3    1.3   -0.1    97    0.9   0.0   ---  0.00   0.0   ---    1.3    1.3    1.3    2.2  1049.3  0.00   0.0    98     4.21    186     0.0  0.00   0.0   0.355   0.000   22.2    30    0.03   701    1    100.0   30 
25/06/19  9:30a    2.8    2.8    1.3    97    2.3   0.0   ---  0.00   0.0   ---    2.8    2.8    2.8    5.3  1049.3  0.25   0.0   184     7.91    239     0.0  0.00   0.0   0.324   0.000   22.4    30    0.00   672    1     98.2   30 
25/06/19 10:00a    4.6    4.6    2.8    97    4.2   0.0   SSE  0.00   3.2   SSE    4.6    4.7    4.7    8.4  1049.3  0.00   0.0   261    11.22    320     0.0  0.00   0.0   0.286   0.000   22.7    30    0.08   703    1    100.0   30 
25/06/19 10:30a    6.4    6.4    4.6    97    5.9   0.0   ---  0.00   0.0   ---    6.4    6.5    6.5   11.1  1049.2  0.00   0.0   347    14.92    387     0.3  0.06   0.6   0.249   0.000   23.2    31    0.00   701    1    100.0   30 
25/06/19 11:00a    7.7    7.7    6.3    91    6.3   0.0   SSE  0.00   3.2   SSE    7.7    7.8    7.8   11.8  1049.2  0.00   0.0   296    12.73    352     0.5  0.11   0.6   0.221   0.000   24.2    31    0.13   699    1    100.0   30 
25/06/19 11:30a    9.3    9.3    7.7    77    5.5   0.0   ---  0.00   0.0   ---    9.3    9.2    9.2   14.0  1048.9  0.00   0.0   377    16.21    482     0.8  0.17   1.0   0.188   0.000   24.9    31    0.00   701    1    100.0   30 
25/06/19 12:00p   11.3   11.3    9.4    70    6.1   0.0   ---  0.00   0.0   ---   11.3   11.0   11.0   16.1  1048.6  0.00   0.0   433    18.62    455     1.0  0.21   1.0   0.146   0.000   25.6    32    0.18   703    1    100.0   30 
25/06/19 12:30p   13.0   13.0   11.3    66    6.8   0.0   ---  0.00   0.0   ---   13.0   12.4   12.4   17.6  1048.1  0.00   0.0   466    20.04    508     1.1  0.24   1.2   0.111   0.000   26.3    32    0.00   702    1    100.0   30 
25/06/19  1:00p   15.5   15.5   13.0    62    8.2   0.0   ---  0.00   0.0   ---   15.5   14.9   14.9   21.7  1047.7  0.00   0.0   564    24.26    635     1.4  0.30   1.4   0.059   0.000   27.1    32    0.25   701    1    100.0   30 
25/06/19  1:30p   16.3   16.8   15.6    56    7.5   0.0    SE  0.00  14.5    SE   16.3   15.5   15.5   20.6  1047.2  0.00   0.0   405    17.42    622     1.1  0.24   1.4   0.042   0.000   27.7    32    0.00   699    1    100.0   30 
25/06/19  2:00p   15.9   16.5   15.9    61    8.4   0.0    SE  0.00   9.7    SE   15.9   15.2   15.2   18.6  1046.8  0.00   0.0   241    10.36    408     0.8  0.17   1.0   0.051   0.000   27.8    32    0.18   700    1    100.0   30 
25/06/19  2:30p   16.2   16.2   15.7    58    7.9   0.0   ESE  0.00  19.3   ESE   16.2   15.4   15.4   18.9  1046.6  0.00   0.0   234    10.06    315     0.6  0.13   0.7   0.044   0.000   27.8    32    0.00   702    1    100.0   30 
25/06/19  3:00p   16.7   16.7   16.2    57    8.2   1.6     E  0.80  19.3   ESE   16.7   15.9   15.9   20.2  1046.6  0.00   0.0   298    12.82    325     0.6  0.13   0.7   0.034   0.000   27.8    32    0.15   702    1    100.0   30 
25/06/19  3:30p   16.7   16.9   16.6    57    8.1   1.6     E  0.80  16.1     E   16.7   15.9   15.9   19.2  1046.7  0.00   0.0   228     9.81    265     0.1  0.02   0.5   0.035   0.000   27.8    32    0.00   703    1    100.0   30 
25/06/19  4:00p   16.1   16.8   16.1    60    8.3   0.0     E  0.00   6.4     E   16.1   15.4   15.4   16.7  1046.8  0.00   0.0   114     4.90    185     0.0  0.00   0.0   0.047   0.000   27.3    32    0.10   702    1    100.0   30 
25/06/19  4:30p   14.6   16.1   14.6    66    8.3   0.0     E  0.00   9.7     E   14.6   14.0   14.0   12.6  1047.0  0.00   0.0    31     1.33     37     0.0  0.00   0.0   0.079   0.000   26.8    32    0.00   700    1    100.0   30 
25/06/19  5:00p   12.8   14.6   12.8    72    7.9   0.0   ---  0.00   0.0   ---   12.8   12.4   12.4   10.8  1047.2  0.00   0.0    13     0.56     21     0.0  0.00   0.0   0.115   0.000   26.3    32    0.03   700    1    100.0   30 
25/06/19  5:30p   11.1   12.8   11.1    79    7.6   0.0   ---  0.00   0.0   ---   11.1   10.9   10.9    9.1  1047.3  0.00   0.0     1     0.04      5     0.0  0.00   0.0   0.152   0.000   25.9    33    0.00   697    1    100.0   30 
25/06/19  6:00p    9.4   11.1    9.4    84    6.9   0.0   ---  0.00   0.0   ---    9.4    9.5    9.5    7.6  1047.7  0.00   0.0     0     0.00      0     0.0  0.00   0.0   0.185   0.000   26.3    33    0.00   701    1    100.0   30 
25/06/19  6:30p    8.2    9.4    8.2    87    6.2   0.0   ---  0.00   0.0   ---    8.2    8.3    8.3    6.4  1048.0  0.00   0.0     0     0.00      0     0.0  0.00   0.0   0.211   0.000   26.3    33    0.00   677    1     99.0   30 
25/06/19  7:00p    7.8    8.2    7.8    89    6.1   0.0   ---  0.00   0.0   ---    7.8    7.8    7.8    5.9  1048.3  0.00   0.0     0     0.00      0     0.0  0.00   0.0   0.220   0.000   25.4    33    0.00   701    1    100.0   30 
25/06/19  7:30p    6.8    7.8    6.8    90    5.3   0.0   ---  0.00   0.0   ---    6.8    6.9    6.9    4.9  1048.6  0.00   0.0     0     0.00      0     0.0  0.00   0.0   0.240   0.000   24.7    33    0.00   700    1    100.0   30 
25/06/19  8:00p    5.9    6.8    5.9    91    4.5   0.0   ---  0.00   0.0   ---    5.9    5.9    5.9    3.9  1048.5  0.00   0.0     0     0.00      0     0.0  0.00   0.0   0.259   0.000   24.7    34    0.00   700    1    100.0   30 
25/06/19  8:30p    5.6    5.9    5.6    91    4.3   0.0   ---  0.00   0.0   ---    5.6    5.6    5.6    3.6  1048.6  0.00   0.0     0     0.00      0     0.0  0.00   0.0   0.265   0.000   24.9    34    0.00   698    1    100.0   30 
25/06/19  9:00p    5.1    5.6    5.1    92    3.9   0.0   ---  0.00   0.0   ---    5.1    5.1    5.1    3.1  1048.4  0.00   0.0     0     0.00      0     0.0  0.00   0.0   0.277   0.000   25.0    33    0.00   700    1    100.0   30 
25/06/19  9:30p    4.5    5.1    4.5    92    3.3   0.0   ---  0.00   0.0   ---    4.5    4.5    4.5    2.4  1048.6  0.00   0.0     0     0.00      0     0.0  0.00   0.0   0.288   0.000   24.9    33    0.00   698    1    100.0   30 
25/06/19 10:00p    4.1    4.5    4.1    93    3.0   0.0   ---  0.00   0.0   ---    4.1    4.1    4.1    2.0  1048.5  0.00   0.0     0     0.00      0     0.0  0.00   0.0   0.297   0.000   24.8    33    0.00   700    1    100.0   30 
25/06/19 10:30p    3.6    4.1    3.5    93    2.5   0.0   ---  0.00   0.0   ---    3.6    3.6    3.6    1.5  1048.6  0.00   0.0     0     0.00      0     0.0  0.00   0.0   0.308   0.000   24.6    33    0.00   702    1    100.0   30 
25/06/19 11:00p    2.8    3.5    2.8    93    1.8   0.0   ---  0.00   0.0   ---    2.8    2.8    2.8    0.7  1048.9  0.00   0.0     0     0.00      0     0.0  0.00   0.0   0.323   0.000   24.4    33    0.00   673    1     98.4   30 
25/06/19 11:30p    3.4    3.4    2.8    94    2.5   0.0   ---  0.00   0.0   ---    3.4    3.4    3.4    1.3  1048.6  0.00   0.0     0     0.00      0     0.0  0.00   0.0   0.311   0.000   24.2    32    0.00   697    1    100.0   30 
26/06/19 12:00a    3.4    3.6    3.4    94    2.5   0.0   ---  0.00   0.0   ---    3.4    3.4    3.4    1.3  1048.6  0.00   0.0     0     0.00      0     0.0  0.00   0.0   0.311   0.000   24.0    32    0.00   702    1    100.0   30 
26/06/19 12:30a    2.8    3.4    2.8    94    1.9   0.0   ---  0.00   0.0   ---    2.8    2.8    2.8    0.7  1048.5  0.00   0.0     0     0.00      0     0.0  0.00   0.0   0.324   0.000   23.9    32    0.00   702    1    100.0   30 
26/06/19  1:00a    2.4    2.8    2.4    94    1.5   0.0   ---  0.00   0.0   ---    2.4    2.4    2.4    0.3  1048.5  0.25   0.0     0     0.00      0     0.0  0.00   0.0   0.332   0.000   23.7    32    0.00   702    1    100.0   30 
26/06/19  1:30a    1.9    2.4    1.9    94    1.1   0.0   ---  0.00   0.0   ---    1.9    1.9    1.9   -0.2  1048.5  0.00   0.0     0     0.00      0     0.0  0.00   0.0   0.341   0.000   23.5    32    0.00   699    1    100.0   30 
26/06/19  2:00a    1.6    1.9    1.6    95    0.8   0.0   ---  0.00   0.0   ---    1.6    1.6    1.6   -0.6  1048.6  0.00   0.0     0     0.00      0     0.0  0.00   0.0   0.350   0.000   23.4    32    0.00   700    1    100.0   30 
26/06/19  2:30a    1.2    1.6    1.2    94    0.4   0.0   ---  0.00   0.0   ---    1.2    1.2    1.2   -1.0  1048.7  0.00   0.0     0     0.00      0     0.0  0.00   0.0   0.356   0.000   23.2    31    0.00   698    1    100.0   30 
26/06/19  3:00a    1.1    1.2    0.9    95    0.3   0.0   ---  0.00   0.0   ---    1.1    1.0    1.0   -1.2  1048.7  0.00   0.0     0     0.00      0     0.0  0.00   0.0   0.360   0.000   23.1    31    0.00   700    1    100.0   30 
26/06/19  3:30a    1.1    1.3    1.1    95    0.3   0.0   ---  0.00   0.0   ---    1.1    1.0    1.0   -1.2  1048.8  0.00   0.0     0     0.00      0     0.0  0.00   0.0   0.360   0.000   22.9    31    0.00   703    1    100.0   30 
26/06/19  4:00a    0.4    1.1    0.4    95   -0.3   0.0   ---  0.00   0.0   ---    0.4    0.3    0.3   -1.8  1048.8  0.00   0.0     0     0.00      0     0.0  0.00   0.0   0.374   0.000   22.8    31    0.00   702    1    100.0   30 
26/06/19  4:30a    0.1    0.4    0.1    95   -0.6   0.0   ---  0.00   0.0   ---    0.1    0.1    0.1   -2.1  1048.9  0.00   0.0     0     0.00      0     0.0  0.00   0.0   0.380   0.000   22.7    31    0.00   675    1     98.7   30 
26/06/19  5:00a    0.3    0.3    0.1    95   -0.4   0.0   ---  0.00   0.0   ---    0.3    0.3    0.3   -1.9  1048.9  0.00   0.0     0     0.00      0     0.0  0.00   0.0   0.375   0.000   22.6    31    0.00   698    1    100.0   30 
26/06/19  5:30a    0.4    0.4    0.3    95   -0.3   0.0   ---  0.00   0.0   ---    0.4    0.3    0.3   -1.8  1049.1  0.00   0.0     0     0.00      0     0.0  0.00   0.0   0.374   0.000   22.4    30    0.00   679    1     99.3   30 
26/06/19  6:00a    0.1    0.4    0.1    95   -0.6   0.0   ---  0.00   0.0   ---    0.1    0.1    0.1   -2.1  1049.3  0.00   0.0     0     0.00      0     0.0  0.00   0.0   0.380   0.000   22.3    30    0.00   682    1     99.7   30 
26/06/19  6:30a   -0.3    0.1   -0.3    95   -1.0   0.0   ---  0.00   0.0   ---   -0.3   -0.4   -0.4   -2.6  1049.5  0.00   0.0     0     0.00      0     0.0  0.00   0.0   0.389   0.000   22.2    30    0.00   700    1    100.0   30 
26/06/19  7:00a    0.0    0.0   -0.3    96   -0.6   0.0   ---  0.00   0.0   ---    0.0   -0.1   -0.1   -2.2  1049.7  0.00   0.0     0     0.00      0     0.0  0.00   0.0   0.382   0.000   22.0    30    0.00   703    1    100.0   30 
26/06/19  7:30a   -0.3    0.1   -0.3    95   -1.0   0.0   ---  0.00   0.0   ---   -0.3   -0.3   -0.3   -2.5  1049.9  0.00   0.0     0     0.00      0     0.0  0.00   0.0   0.388   0.000   22.0    30    0.00   665    1     97.2   30 
26/06/19  8:00a   -0.1   -0.1   -0.3    96   -0.7   0.0   ---  0.00   0.0   ---   -0.1   -0.2   -0.2   -2.3  1050.3  0.00   0.0     8     0.34     14     0.0  0.00   0.0   0.384   0.000   22.3    29    0.00   700    1    100.0   30 
26/06/19  8:30a    1.4    1.4   -0.1    96    0.9   0.0   ---  0.00   0.0   ---    1.4    1.4    1.4    0.1  1050.5  0.00   0.0    67     2.88    100     0.0  0.00   0.0   0.352   0.000   22.6    29    0.00   703    1    100.0   30 
26/06/19  9:00a    3.5    3.5    1.4    97    3.1   0.0   ---  0.00   0.0   ---    3.5    3.6    3.6    4.9  1050.5  0.00   0.0   119     5.12    156     0.0  0.00   0.0   0.309   0.000   22.3    30    0.03   700    1    100.0   30 
26/06/19  9:30a    5.2    5.2    3.5    97    4.7   0.0   ---  0.00   0.0   ---    5.2    5.2    5.2    8.1  1050.5  0.00   0.0   196     8.43    234     0.0  0.00   0.0   0.274   0.000   22.6    30    0.00   702    1    100.0   30 
26/06/19 10:00a    6.8    6.8    5.2    97    6.3   0.0   ---  0.00   0.0   ---    6.8    6.9    6.9   10.9  1050.3  0.00   0.0   274    11.78    313     0.0  0.00   0.0   0.241   0.000   22.9    31    0.10   702    1    100.0   30 
26/06/19 10:30a    8.5    8.5    6.8    94    7.6   0.0   ---  0.00   0.0   ---    8.5    8.7    8.7   13.3  1050.1  0.00   0.0   341    14.66    366     0.5  0.11   0.7   0.205   0.000   23.7    32    0.00   702    1    100.0   30 
26/06/19 11:00a   10.0   10.0    8.5    88    8.1   0.0     E  0.00   9.7     E   10.0   10.1   10.1   15.1  1049.8  0.00   0.0   388    16.69    408     0.8  0.17   0.9   0.174   0.000   24.5    32    0.15   702    1    100.0   30 
26/06/19 11:30a   11.9   11.9   10.1    79    8.4   0.0     E  0.00   6.4     E   11.9   11.7   11.7   16.8  1049.4  0.00   0.0   424    18.23    438     1.0  0.21   1.1   0.134   0.000   25.2    33    0.00   701    1    100.0   30 
26/06/19 12:00p   13.3   13.3   11.9    75    8.9   0.0     E  0.00   3.2     E   13.3   12.9   12.9   18.0  1048.8  0.00   0.0   448    19.27    455     1.1  0.24   1.2   0.105   0.000   26.1    33    0.20   702    1    100.0   30 
26/06/19 12:30p   14.8   14.8   13.3    70    9.4   0.0     E  0.00   3.2     E   14.8   14.4   14.4   19.6  1048.2  0.00   0.0   457    19.65    459     1.2  0.26   1.3   0.074   0.000   26.7    33    0.00   699    1    100.0   30 
26/06/19  1:00p   15.6   15.6   14.8    68    9.7   0.0     E  0.00  12.9     E   15.6   15.2   15.2   20.4  1047.7  0.00   0.0   451    19.40    457     1.3  0.28   1.3   0.057   0.000   27.4    33    0.23   701    1    100.0   30 
26/06/19  1:30p   17.1   17.1   15.6    60    9.2   0.0     E  0.00   3.2     E   17.1   16.4   16.4   21.6  1047.2  0.00   0.0   432    18.58    443     1.2  0.26   1.2   0.027   0.000   27.8    33    0.00   702    1    100.0   30 
26/06/19  2:00p   17.7   17.7   17.1    55    8.6   0.0   ---  0.00   0.0   ---   17.7   17.0   17.0   22.0  1046.8  0.00   0.0   400    17.20    417     1.1  0.24   1.2   0.013   0.000   28.1    33    0.23   703    1    100.0   30 
26/06/19  2:30p   17.6   17.8   17.5    55    8.4   0.0     E  0.00   9.7     E   17.6   16.8   16.8   21.6  1046.5  0.00   0.0   355    15.27    380     0.9  0.19   1.0   0.016   0.000   28.2    33    0.00   701    1    100.0   30 
26/06/19  3:00p   18.1   18.1   17.6    54    8.6   0.0     E  0.00   3.2     E   18.1   17.3   17.3   21.6  1046.6  0.00   0.0   296    12.73    329     0.7  0.15   0.8   0.006   0.000   28.2    33    0.18   701    1    100.0   30 
26/06/19  3:30p   17.9   18.3   17.9    54    8.4   0.0     E  0.00   1.6     E   17.9   17.1   17.1   20.2  1046.5  0.00   0.0   216     9.29    264     0.3  0.06   0.6   0.009   0.000   27.8    34    0.00   701    1    100.0   30 
26/06/19  4:00p   17.3   17.9   17.3    57    8.7   0.0     E  0.00  12.9     E   17.3   16.6   16.6   17.9  1046.4  0.00   0.0   116     4.99    193     0.0  0.00   0.0   0.021   0.000   27.6    34    0.10   701    1    100.0   30 
26/06/19  4:30p   15.7   17.3   15.7    62    8.5   0.0     E  0.00  19.3     E   15.7   15.1   15.1   13.6  1046.4  0.00   0.0    23     0.99     26     0.0  0.00   0.0   0.054   0.000   27.1    34    0.00   701    1    100.0   30 
26/06/19  5:00p   13.8   15.7   13.8    68    8.0   0.0   ---  0.00   0.0   ---   13.8   13.3   13.3   11.6  1046.4  0.00   0.0    11     0.47     18     0.0  0.00   0.0   0.095   0.000   26.8    34    0.03   700    1    100.0   30 
26/06/19  5:30p   11.8   13.8   11.8    74    7.3   0.0   ---  0.00   0.0   ---   11.8   11.5   11.5    9.6  1046.4  0.00   0.0     0     0.00      5     0.0  0.00   0.0   0.137   0.000   26.3    35    0.00   701    1    100.0   30 
26/06/19  6:00p    9.9   11.7    9.9    80    6.7   0.0   ---  0.00   0.0   ---    9.9    9.9    9.9    8.0  1046.4  0.00   0.0     0     0.00      0     0.0  0.00   0.0   0.175   0.000   26.5    35    0.00   700    1    100.0   30 
26/06/19  6:30p    8.5    9.9    8.5    84    5.9   0.0   ---  0.00   0.0   ---    8.5    8.5    8.5    6.6  1046.7  0.00   0.0     0     0.00      0     0.0  0.00   0.0   0.205   0.000   26.7    34    0.00   702    1    100.0   30 
26/06/19  7:00p    7.2    8.5    7.2    86    5.0   0.0   ---  0.00   0.0   ---    7.2    7.2    7.2    5.2  1046.8  0.00   0.0     0     0.00      0     0.0  0.00   0.0   0.231   0.000   26.7    34    0.00   681    1     99.6   30 
26/06/19  7:30p    6.9    7.2    6.9    89    5.3   0.0   ---  0.00   0.0   ---    6.9    7.0    7.0    5.0  1046.9  0.00   0.0     0     0.00      0     0.0  0.00   0.0   0.237   0.000   26.5    34    0.00   699    1    100.0   30 
26/06/19  8:00p    6.4    6.9    6.4    90    4.9   0.0   ---  0.00   0.0   ---    6.4    6.5    6.5    4.5  1047.0  0.00   0.0     0     0.00      0     0.0  0.00   0.0   0.248   0.000   26.4    33    0.00   702    1    100.0   30 
26/06/19  8:30p    5.6    6.4    5.6    91    4.3   0.0   ---  0.00   0.0   ---    5.6    5.6    5.6    3.6  1047.0  0.00   0.0     0     0.00      0     0.0  0.00   0.0   0.265   0.000   26.2    33    0.00   664    1     97.1   30 
26/06/19  9:00p    5.1    5.6    5.1    92    3.9   0.0   ---  0.00   0.0   ---    5.1    5.1    5.1    3.1  1047.1  0.00   0.0     0     0.00      0     0.0  0.00   0.0   0.275   0.000   25.9    33    0.00   702    1    100.0   30 
26/06/19  9:30p    4.5    5.1    4.5    92    3.3   0.0   ---  0.00   0.0   ---    4.5    4.5    4.5    2.4  1046.9  0.00   0.0     0     0.00      0     0.0  0.00   0.0   0.288   0.000   25.7    33    0.00   678    1     99.1   30 
26/06/19 10:00p    4.0    4.5    4.0    93    3.0   0.0   ---  0.00   0.0   ---    4.0    4.0    4.0    1.9  1047.2  0.00   0.0     0     0.00      0     0.0  0.00   0.0   0.299   0.000   25.4    33    0.00   700    1    100.0   30 
26/06/19 10:30p    3.8    4.0    3.7    93    2.7   0.0   ---  0.00   0.0   ---    3.8    3.8    3.8    1.7  1047.1  0.00   0.0     0     0.00      0     0.0  0.00   0.0   0.303   0.000   25.2    33    0.00   701    1    100.0   30 
26/06/19 11:00p    3.2    3.8    3.2    93    2.2   0.0   ---  0.00   0.0   ---    3.2    3.2    3.2    1.1  1047.2  0.00   0.0     0     0.00      0     0.0  0.00   0.0   0.315   0.000   24.9    32    0.00   699    1    100.0   30 
26/06/19 11:30p    3.0    3.2    3.0    94    2.1   0.0   ---  0.00   0.0   ---    3.0    3.0    3.0    0.9  1047.2  0.00   0.0     0     0.00      0     0.0  0.00   0.0   0.319   0.000   24.6    32    0.00   675    1     98.7   30 
27/06/19 12:00a    2.8    3.0    2.8    94    2.0   0.0   ---  0.00   0.0   ---    2.8    2.8    2.8    0.7  1046.9  0.00   0.0     0     0.00      0     0.0  0.00   0.0   0.323   0.000   24.4    32    0.00   678    1     99.1   30 
27/06/19 12:30a    2.6    2.9    2.6    94    1.7   0.0   ---  0.00   0.0   ---    2.6    2.6    2.6    0.4  1046.9  0.00   0.0     0     0.00      0     0.0  0.00   0.0   0.329   0.000   24.2    32    0.00   702    1    100.0   30 
27/06/19  1:00a    2.3    2.6    2.3    94    1.4   0.0   ---  0.00   0.0   ---    2.3    2.3    2.3    0.2  1046.8  0.25   0.0     0     0.00      0     0.0  0.00   0.0   0.334   0.000   24.0    32    0.00   701    1    100.0   30 
27/06/19  1:30a    1.9    2.3    1.9    94    1.1   0.0   ---  0.00   0.0   ---    1.9    1.9    1.9   -0.2  1046.7  0.00   0.0     0     0.00      0     0.0  0.00   0.0   0.341   0.000   23.8    32    0.00   699    1    100.0   30